<?xml version="1.0" encoding="UTF-8" standalone="no" ?>
<gpx xmlns="http://www.topografix.com/GPX/1/1" xmlns:xsi="http://www.w3.org/2001/XMLSchema-instance" xsi:schemaLocation="http://www.topografix.com/GPX/1/1 http://www.topografix.com/GPX/1/1/gpx.xsd" version="1.1" creator="VisuGPX - https://www.visugpx.com">
  <metadata>
    <name>Activité de Randonnée TwoNav</name>
    <desc><![CDATA[2021-10-03_110249.trk]]></desc>
  </metadata>
  <trk>
    <name><![CDATA[Activité de Randonnée TwoNav_1]]></name>
    <trkseg>
      <trkpt lat="47.44666" lon="7.21932">
        <ele>552.1</ele>
        <time>2021-10-03T09:02:49Z</time>
      </trkpt>
      <trkpt lat="47.44666" lon="7.21932">
        <ele>552.1</ele>
        <time>2021-10-03T09:02:50Z</time>
      </trkpt>
      <trkpt lat="47.44666" lon="7.21931">
        <ele>552.1</ele>
        <time>2021-10-03T09:02:54Z</time>
      </trkpt>
      <trkpt lat="47.44664" lon="7.21932">
        <ele>552.1</ele>
        <time>2021-10-03T09:03:05Z</time>
      </trkpt>
      <trkpt lat="47.44664" lon="7.21932">
        <ele>552.1</ele>
        <time>2021-10-03T09:03:06Z</time>
      </trkpt>
      <trkpt lat="47.44664" lon="7.21932">
        <ele>552.1</ele>
        <time>2021-10-03T09:03:10Z</time>
      </trkpt>
      <trkpt lat="47.44664" lon="7.21931">
        <ele>552.1</ele>
        <time>2021-10-03T09:03:16Z</time>
      </trkpt>
      <trkpt lat="47.44663" lon="7.21931">
        <ele>552.1</ele>
        <time>2021-10-03T09:03:20Z</time>
      </trkpt>
      <trkpt lat="47.44662" lon="7.21931">
        <ele>552.1</ele>
        <time>2021-10-03T09:03:21Z</time>
      </trkpt>
      <trkpt lat="47.4466" lon="7.2193">
        <ele>552.1</ele>
        <time>2021-10-03T09:03:27Z</time>
      </trkpt>
      <trkpt lat="47.44661" lon="7.21929">
        <ele>552.1</ele>
        <time>2021-10-03T09:03:28Z</time>
      </trkpt>
      <trkpt lat="47.44661" lon="7.21929">
        <ele>552.1</ele>
        <time>2021-10-03T09:03:29Z</time>
      </trkpt>
      <trkpt lat="47.44661" lon="7.21928">
        <ele>552.1</ele>
        <time>2021-10-03T09:04:34Z</time>
      </trkpt>
      <trkpt lat="47.44661" lon="7.21928">
        <ele>552.1</ele>
        <time>2021-10-03T09:04:35Z</time>
      </trkpt>
      <trkpt lat="47.44661" lon="7.21928">
        <ele>552.1</ele>
        <time>2021-10-03T09:04:36Z</time>
      </trkpt>
      <trkpt lat="47.44661" lon="7.21927">
        <ele>552.1</ele>
        <time>2021-10-03T09:04:38Z</time>
      </trkpt>
      <trkpt lat="47.44662" lon="7.21927">
        <ele>552.1</ele>
        <time>2021-10-03T09:04:45Z</time>
      </trkpt>
      <trkpt lat="47.44662" lon="7.21927">
        <ele>552.1</ele>
        <time>2021-10-03T09:04:46Z</time>
      </trkpt>
      <trkpt lat="47.44662" lon="7.21927">
        <ele>552.1</ele>
        <time>2021-10-03T09:05:03Z</time>
      </trkpt>
      <trkpt lat="47.44663" lon="7.21929">
        <ele>552.1</ele>
        <time>2021-10-03T09:05:08Z</time>
      </trkpt>
      <trkpt lat="47.44662" lon="7.21929">
        <ele>552.1</ele>
        <time>2021-10-03T09:05:28Z</time>
      </trkpt>
      <trkpt lat="47.44662" lon="7.21929">
        <ele>552.1</ele>
        <time>2021-10-03T09:05:29Z</time>
      </trkpt>
      <trkpt lat="47.44662" lon="7.2193">
        <ele>552.1</ele>
        <time>2021-10-03T09:05:56Z</time>
      </trkpt>
      <trkpt lat="47.44662" lon="7.2193">
        <ele>552.1</ele>
        <time>2021-10-03T09:05:58Z</time>
      </trkpt>
      <trkpt lat="47.44662" lon="7.2193">
        <ele>552.1</ele>
        <time>2021-10-03T09:06:40Z</time>
      </trkpt>
      <trkpt lat="47.44662" lon="7.2193">
        <ele>552.1</ele>
        <time>2021-10-03T09:06:41Z</time>
      </trkpt>
      <trkpt lat="47.44662" lon="7.2193">
        <ele>552.1</ele>
        <time>2021-10-03T09:06:42Z</time>
      </trkpt>
      <trkpt lat="47.44662" lon="7.2193">
        <ele>552.1</ele>
        <time>2021-10-03T09:06:43Z</time>
      </trkpt>
      <trkpt lat="47.44662" lon="7.2193">
        <ele>552.1</ele>
        <time>2021-10-03T09:06:54Z</time>
      </trkpt>
      <trkpt lat="47.44662" lon="7.2193">
        <ele>552.1</ele>
        <time>2021-10-03T09:06:55Z</time>
      </trkpt>
      <trkpt lat="47.44662" lon="7.2193">
        <ele>552.1</ele>
        <time>2021-10-03T09:06:56Z</time>
      </trkpt>
      <trkpt lat="47.44663" lon="7.21932">
        <ele>552.2</ele>
        <time>2021-10-03T09:07:03Z</time>
      </trkpt>
      <trkpt lat="47.44663" lon="7.21932">
        <ele>552.2</ele>
        <time>2021-10-03T09:07:05Z</time>
      </trkpt>
      <trkpt lat="47.44663" lon="7.21931">
        <ele>552.2</ele>
        <time>2021-10-03T09:07:11Z</time>
      </trkpt>
      <trkpt lat="47.44663" lon="7.21931">
        <ele>552.2</ele>
        <time>2021-10-03T09:07:15Z</time>
      </trkpt>
      <trkpt lat="47.44663" lon="7.21931">
        <ele>552.2</ele>
        <time>2021-10-03T09:07:16Z</time>
      </trkpt>
      <trkpt lat="47.44663" lon="7.21931">
        <ele>552.2</ele>
        <time>2021-10-03T09:07:17Z</time>
      </trkpt>
      <trkpt lat="47.44663" lon="7.21931">
        <ele>552.2</ele>
        <time>2021-10-03T09:07:21Z</time>
      </trkpt>
      <trkpt lat="47.44663" lon="7.21931">
        <ele>552.2</ele>
        <time>2021-10-03T09:07:26Z</time>
      </trkpt>
      <trkpt lat="47.44663" lon="7.21931">
        <ele>552.2</ele>
        <time>2021-10-03T09:07:30Z</time>
      </trkpt>
      <trkpt lat="47.44662" lon="7.21931">
        <ele>552.2</ele>
        <time>2021-10-03T09:08:18Z</time>
      </trkpt>
      <trkpt lat="47.44662" lon="7.21931">
        <ele>552.2</ele>
        <time>2021-10-03T09:08:21Z</time>
      </trkpt>
      <trkpt lat="47.44662" lon="7.21932">
        <ele>552.2</ele>
        <time>2021-10-03T09:08:31Z</time>
      </trkpt>
      <trkpt lat="47.44662" lon="7.21932">
        <ele>552.2</ele>
        <time>2021-10-03T09:08:34Z</time>
      </trkpt>
      <trkpt lat="47.44662" lon="7.21932">
        <ele>552.2</ele>
        <time>2021-10-03T09:09:03Z</time>
      </trkpt>
      <trkpt lat="47.44662" lon="7.21932">
        <ele>552.2</ele>
        <time>2021-10-03T09:09:04Z</time>
      </trkpt>
      <trkpt lat="47.44662" lon="7.21932">
        <ele>552.2</ele>
        <time>2021-10-03T09:09:05Z</time>
      </trkpt>
      <trkpt lat="47.44662" lon="7.21932">
        <ele>552.2</ele>
        <time>2021-10-03T09:09:06Z</time>
      </trkpt>
      <trkpt lat="47.44662" lon="7.21932">
        <ele>552.2</ele>
        <time>2021-10-03T09:09:12Z</time>
      </trkpt>
      <trkpt lat="47.44662" lon="7.21932">
        <ele>552.2</ele>
        <time>2021-10-03T09:09:13Z</time>
      </trkpt>
      <trkpt lat="47.44662" lon="7.21932">
        <ele>552.2</ele>
        <time>2021-10-03T09:09:19Z</time>
      </trkpt>
      <trkpt lat="47.44662" lon="7.21932">
        <ele>552.2</ele>
        <time>2021-10-03T09:09:21Z</time>
      </trkpt>
      <trkpt lat="47.44662" lon="7.21932">
        <ele>552.2</ele>
        <time>2021-10-03T09:09:22Z</time>
      </trkpt>
      <trkpt lat="47.44662" lon="7.21932">
        <ele>552.2</ele>
        <time>2021-10-03T09:09:27Z</time>
      </trkpt>
      <trkpt lat="47.44662" lon="7.21932">
        <ele>552.2</ele>
        <time>2021-10-03T09:09:29Z</time>
      </trkpt>
      <trkpt lat="47.44662" lon="7.21932">
        <ele>552.2</ele>
        <time>2021-10-03T09:09:30Z</time>
      </trkpt>
      <trkpt lat="47.44662" lon="7.21932">
        <ele>552.2</ele>
        <time>2021-10-03T09:09:31Z</time>
      </trkpt>
      <trkpt lat="47.44662" lon="7.21932">
        <ele>552.2</ele>
        <time>2021-10-03T09:09:33Z</time>
      </trkpt>
      <trkpt lat="47.44662" lon="7.21932">
        <ele>552.2</ele>
        <time>2021-10-03T09:09:34Z</time>
      </trkpt>
      <trkpt lat="47.44662" lon="7.21932">
        <ele>552.2</ele>
        <time>2021-10-03T09:09:37Z</time>
      </trkpt>
      <trkpt lat="47.44662" lon="7.21932">
        <ele>552.2</ele>
        <time>2021-10-03T09:09:38Z</time>
      </trkpt>
      <trkpt lat="47.44662" lon="7.21935">
        <ele>552.2</ele>
        <time>2021-10-03T09:09:47Z</time>
      </trkpt>
      <trkpt lat="47.44662" lon="7.21934">
        <ele>552.2</ele>
        <time>2021-10-03T09:09:49Z</time>
      </trkpt>
      <trkpt lat="47.44661" lon="7.21935">
        <ele>552.2</ele>
        <time>2021-10-03T09:09:52Z</time>
      </trkpt>
      <trkpt lat="47.44661" lon="7.21935">
        <ele>552.2</ele>
        <time>2021-10-03T09:09:58Z</time>
      </trkpt>
      <trkpt lat="47.44661" lon="7.21935">
        <ele>552.2</ele>
        <time>2021-10-03T09:09:59Z</time>
      </trkpt>
      <trkpt lat="47.44662" lon="7.21935">
        <ele>552.2</ele>
        <time>2021-10-03T09:10:12Z</time>
      </trkpt>
      <trkpt lat="47.44662" lon="7.21935">
        <ele>552.2</ele>
        <time>2021-10-03T09:10:13Z</time>
      </trkpt>
      <trkpt lat="47.44662" lon="7.21935">
        <ele>552.2</ele>
        <time>2021-10-03T09:10:28Z</time>
      </trkpt>
      <trkpt lat="47.44662" lon="7.21935">
        <ele>552.2</ele>
        <time>2021-10-03T09:10:29Z</time>
      </trkpt>
      <trkpt lat="47.44662" lon="7.21935">
        <ele>552.2</ele>
        <time>2021-10-03T09:10:30Z</time>
      </trkpt>
      <trkpt lat="47.44662" lon="7.21935">
        <ele>552.2</ele>
        <time>2021-10-03T09:10:31Z</time>
      </trkpt>
      <trkpt lat="47.44662" lon="7.21936">
        <ele>552.2</ele>
        <time>2021-10-03T09:10:32Z</time>
      </trkpt>
      <trkpt lat="47.44662" lon="7.21936">
        <ele>552.2</ele>
        <time>2021-10-03T09:10:34Z</time>
      </trkpt>
      <trkpt lat="47.44662" lon="7.21936">
        <ele>552.2</ele>
        <time>2021-10-03T09:10:38Z</time>
      </trkpt>
      <trkpt lat="47.44662" lon="7.21936">
        <ele>552.2</ele>
        <time>2021-10-03T09:10:39Z</time>
      </trkpt>
      <trkpt lat="47.44662" lon="7.21936">
        <ele>552.2</ele>
        <time>2021-10-03T09:10:49Z</time>
      </trkpt>
      <trkpt lat="47.44661" lon="7.21935">
        <ele>552.2</ele>
        <time>2021-10-03T09:10:53Z</time>
      </trkpt>
      <trkpt lat="47.44661" lon="7.21935">
        <ele>552.2</ele>
        <time>2021-10-03T09:10:54Z</time>
      </trkpt>
      <trkpt lat="47.44658" lon="7.21933">
        <ele>552.3</ele>
        <time>2021-10-03T09:11:05Z</time>
      </trkpt>
      <trkpt lat="47.44658" lon="7.21933">
        <ele>552.3</ele>
        <time>2021-10-03T09:11:10Z</time>
      </trkpt>
      <trkpt lat="47.44657" lon="7.21933">
        <ele>552.3</ele>
        <time>2021-10-03T09:11:14Z</time>
      </trkpt>
      <trkpt lat="47.44657" lon="7.21933">
        <ele>552.3</ele>
        <time>2021-10-03T09:11:15Z</time>
      </trkpt>
      <trkpt lat="47.44662" lon="7.21934">
        <ele>552.3</ele>
        <time>2021-10-03T09:11:32Z</time>
      </trkpt>
      <trkpt lat="47.44662" lon="7.21934">
        <ele>552.3</ele>
        <time>2021-10-03T09:11:33Z</time>
      </trkpt>
      <trkpt lat="47.44661" lon="7.21933">
        <ele>552.3</ele>
        <time>2021-10-03T09:11:42Z</time>
      </trkpt>
      <trkpt lat="47.44661" lon="7.21933">
        <ele>552.3</ele>
        <time>2021-10-03T09:11:43Z</time>
      </trkpt>
      <trkpt lat="47.44661" lon="7.21934">
        <ele>552.3</ele>
        <time>2021-10-03T09:11:50Z</time>
      </trkpt>
      <trkpt lat="47.44661" lon="7.21934">
        <ele>552.3</ele>
        <time>2021-10-03T09:11:53Z</time>
      </trkpt>
      <trkpt lat="47.44664" lon="7.21935">
        <ele>552.3</ele>
        <time>2021-10-03T09:12:06Z</time>
      </trkpt>
      <trkpt lat="47.44664" lon="7.21935">
        <ele>552.3</ele>
        <time>2021-10-03T09:12:07Z</time>
      </trkpt>
      <trkpt lat="47.44664" lon="7.21935">
        <ele>552.3</ele>
        <time>2021-10-03T09:12:08Z</time>
      </trkpt>
      <trkpt lat="47.44664" lon="7.21936">
        <ele>552.3</ele>
        <time>2021-10-03T09:12:09Z</time>
      </trkpt>
      <trkpt lat="47.44667" lon="7.21936">
        <ele>552.4</ele>
        <time>2021-10-03T09:12:16Z</time>
      </trkpt>
      <trkpt lat="47.44666" lon="7.21935">
        <ele>552.4</ele>
        <time>2021-10-03T09:12:17Z</time>
      </trkpt>
      <trkpt lat="47.44666" lon="7.21935">
        <ele>552.4</ele>
        <time>2021-10-03T09:12:19Z</time>
      </trkpt>
      <trkpt lat="47.44666" lon="7.21935">
        <ele>552.4</ele>
        <time>2021-10-03T09:12:20Z</time>
      </trkpt>
      <trkpt lat="47.44663" lon="7.21935">
        <ele>552.4</ele>
        <time>2021-10-03T09:12:35Z</time>
      </trkpt>
      <trkpt lat="47.44663" lon="7.21935">
        <ele>552.4</ele>
        <time>2021-10-03T09:12:36Z</time>
      </trkpt>
      <trkpt lat="47.4466" lon="7.21934">
        <ele>552.4</ele>
        <time>2021-10-03T09:12:42Z</time>
      </trkpt>
      <trkpt lat="47.4466" lon="7.21934">
        <ele>552.4</ele>
        <time>2021-10-03T09:12:43Z</time>
      </trkpt>
      <trkpt lat="47.44658" lon="7.21935">
        <ele>552.4</ele>
        <time>2021-10-03T09:12:51Z</time>
      </trkpt>
      <trkpt lat="47.44658" lon="7.21935">
        <ele>552.4</ele>
        <time>2021-10-03T09:12:53Z</time>
      </trkpt>
      <trkpt lat="47.44658" lon="7.21935">
        <ele>552.4</ele>
        <time>2021-10-03T09:13:01Z</time>
      </trkpt>
      <trkpt lat="47.44658" lon="7.21935">
        <ele>552.4</ele>
        <time>2021-10-03T09:13:02Z</time>
      </trkpt>
      <trkpt lat="47.44657" lon="7.21934">
        <ele>552.4</ele>
        <time>2021-10-03T09:13:05Z</time>
      </trkpt>
      <trkpt lat="47.44656" lon="7.21934">
        <ele>552.4</ele>
        <time>2021-10-03T09:13:06Z</time>
      </trkpt>
      <trkpt lat="47.44656" lon="7.21935">
        <ele>552.5</ele>
        <time>2021-10-03T09:13:09Z</time>
      </trkpt>
      <trkpt lat="47.44655" lon="7.21935">
        <ele>552.5</ele>
        <time>2021-10-03T09:13:10Z</time>
      </trkpt>
      <trkpt lat="47.44655" lon="7.21934">
        <ele>552.5</ele>
        <time>2021-10-03T09:13:14Z</time>
      </trkpt>
      <trkpt lat="47.44655" lon="7.21934">
        <ele>552.5</ele>
        <time>2021-10-03T09:13:15Z</time>
      </trkpt>
      <trkpt lat="47.44657" lon="7.21935">
        <ele>552.5</ele>
        <time>2021-10-03T09:13:19Z</time>
      </trkpt>
      <trkpt lat="47.44657" lon="7.21934">
        <ele>552.5</ele>
        <time>2021-10-03T09:13:20Z</time>
      </trkpt>
      <trkpt lat="47.44657" lon="7.21935">
        <ele>552.5</ele>
        <time>2021-10-03T09:13:22Z</time>
      </trkpt>
      <trkpt lat="47.44657" lon="7.21935">
        <ele>552.5</ele>
        <time>2021-10-03T09:13:24Z</time>
      </trkpt>
      <trkpt lat="47.44657" lon="7.21936">
        <ele>552.5</ele>
        <time>2021-10-03T09:13:27Z</time>
      </trkpt>
      <trkpt lat="47.44657" lon="7.21935">
        <ele>552.5</ele>
        <time>2021-10-03T09:13:28Z</time>
      </trkpt>
      <trkpt lat="47.44657" lon="7.21935">
        <ele>552.5</ele>
        <time>2021-10-03T09:13:29Z</time>
      </trkpt>
      <trkpt lat="47.44657" lon="7.21936">
        <ele>552.5</ele>
        <time>2021-10-03T09:13:31Z</time>
      </trkpt>
      <trkpt lat="47.44658" lon="7.21937">
        <ele>552.5</ele>
        <time>2021-10-03T09:13:37Z</time>
      </trkpt>
      <trkpt lat="47.44658" lon="7.21937">
        <ele>552.5</ele>
        <time>2021-10-03T09:13:42Z</time>
      </trkpt>
      <trkpt lat="47.44657" lon="7.21937">
        <ele>552.5</ele>
        <time>2021-10-03T09:13:46Z</time>
      </trkpt>
      <trkpt lat="47.44657" lon="7.21937">
        <ele>552.5</ele>
        <time>2021-10-03T09:13:53Z</time>
      </trkpt>
      <trkpt lat="47.4466" lon="7.21936">
        <ele>552.5</ele>
        <time>2021-10-03T09:14:10Z</time>
      </trkpt>
      <trkpt lat="47.4466" lon="7.21936">
        <ele>552.5</ele>
        <time>2021-10-03T09:14:12Z</time>
      </trkpt>
      <trkpt lat="47.44659" lon="7.21936">
        <ele>552.5</ele>
        <time>2021-10-03T09:14:15Z</time>
      </trkpt>
      <trkpt lat="47.4466" lon="7.21936">
        <ele>552.5</ele>
        <time>2021-10-03T09:14:22Z</time>
      </trkpt>
      <trkpt lat="47.4466" lon="7.21936">
        <ele>552.5</ele>
        <time>2021-10-03T09:14:23Z</time>
      </trkpt>
      <trkpt lat="47.4466" lon="7.21936">
        <ele>552.5</ele>
        <time>2021-10-03T09:14:39Z</time>
      </trkpt>
      <trkpt lat="47.4466" lon="7.21936">
        <ele>552.5</ele>
        <time>2021-10-03T09:14:41Z</time>
      </trkpt>
      <trkpt lat="47.4466" lon="7.21936">
        <ele>552.5</ele>
        <time>2021-10-03T09:14:42Z</time>
      </trkpt>
      <trkpt lat="47.4466" lon="7.21936">
        <ele>552.5</ele>
        <time>2021-10-03T09:14:43Z</time>
      </trkpt>
      <trkpt lat="47.4466" lon="7.21936">
        <ele>552.5</ele>
        <time>2021-10-03T09:15:00Z</time>
      </trkpt>
      <trkpt lat="47.44657" lon="7.2193">
        <ele>552.6</ele>
        <time>2021-10-03T09:15:23Z</time>
      </trkpt>
      <trkpt lat="47.44657" lon="7.2193">
        <ele>552.6</ele>
        <time>2021-10-03T09:15:29Z</time>
      </trkpt>
      <trkpt lat="47.44658" lon="7.21931">
        <ele>552.6</ele>
        <time>2021-10-03T09:15:32Z</time>
      </trkpt>
      <trkpt lat="47.44658" lon="7.21932">
        <ele>552.6</ele>
        <time>2021-10-03T09:15:37Z</time>
      </trkpt>
      <trkpt lat="47.44656" lon="7.21933">
        <ele>552.6</ele>
        <time>2021-10-03T09:15:41Z</time>
      </trkpt>
      <trkpt lat="47.44656" lon="7.21934">
        <ele>552.6</ele>
        <time>2021-10-03T09:15:51Z</time>
      </trkpt>
      <trkpt lat="47.44656" lon="7.21934">
        <ele>552.6</ele>
        <time>2021-10-03T09:15:53Z</time>
      </trkpt>
      <trkpt lat="47.44656" lon="7.21934">
        <ele>552.6</ele>
        <time>2021-10-03T09:16:08Z</time>
      </trkpt>
      <trkpt lat="47.44656" lon="7.21934">
        <ele>552.6</ele>
        <time>2021-10-03T09:16:10Z</time>
      </trkpt>
      <trkpt lat="47.44656" lon="7.21934">
        <ele>552.6</ele>
        <time>2021-10-03T09:16:31Z</time>
      </trkpt>
      <trkpt lat="47.44658" lon="7.21933">
        <ele>552.6</ele>
        <time>2021-10-03T09:16:37Z</time>
      </trkpt>
      <trkpt lat="47.44658" lon="7.21933">
        <ele>552.6</ele>
        <time>2021-10-03T09:16:45Z</time>
      </trkpt>
      <trkpt lat="47.44658" lon="7.21933">
        <ele>552.6</ele>
        <time>2021-10-03T09:16:46Z</time>
      </trkpt>
      <trkpt lat="47.44658" lon="7.21933">
        <ele>552.6</ele>
        <time>2021-10-03T09:16:49Z</time>
      </trkpt>
      <trkpt lat="47.44657" lon="7.21932">
        <ele>552.6</ele>
        <time>2021-10-03T09:16:53Z</time>
      </trkpt>
      <trkpt lat="47.44657" lon="7.21932">
        <ele>552.6</ele>
        <time>2021-10-03T09:16:54Z</time>
      </trkpt>
      <trkpt lat="47.44658" lon="7.21931">
        <ele>552.6</ele>
        <time>2021-10-03T09:17:00Z</time>
      </trkpt>
      <trkpt lat="47.44658" lon="7.21932">
        <ele>552.6</ele>
        <time>2021-10-03T09:17:01Z</time>
      </trkpt>
      <trkpt lat="47.44658" lon="7.21932">
        <ele>552.6</ele>
        <time>2021-10-03T09:17:03Z</time>
      </trkpt>
      <trkpt lat="47.44658" lon="7.21931">
        <ele>552.7</ele>
        <time>2021-10-03T09:17:05Z</time>
      </trkpt>
      <trkpt lat="47.44658" lon="7.21931">
        <ele>552.7</ele>
        <time>2021-10-03T09:17:07Z</time>
      </trkpt>
      <trkpt lat="47.44658" lon="7.21931">
        <ele>552.7</ele>
        <time>2021-10-03T09:17:09Z</time>
      </trkpt>
      <trkpt lat="47.44658" lon="7.21931">
        <ele>552.7</ele>
        <time>2021-10-03T09:17:12Z</time>
      </trkpt>
      <trkpt lat="47.44658" lon="7.2193">
        <ele>552.7</ele>
        <time>2021-10-03T09:17:19Z</time>
      </trkpt>
      <trkpt lat="47.44659" lon="7.2193">
        <ele>552.7</ele>
        <time>2021-10-03T09:17:34Z</time>
      </trkpt>
      <trkpt lat="47.44659" lon="7.21931">
        <ele>552.7</ele>
        <time>2021-10-03T09:17:35Z</time>
      </trkpt>
      <trkpt lat="47.44661" lon="7.21935">
        <ele>552.7</ele>
        <time>2021-10-03T09:17:45Z</time>
      </trkpt>
      <trkpt lat="47.44661" lon="7.21935">
        <ele>552.7</ele>
        <time>2021-10-03T09:18:18Z</time>
      </trkpt>
      <trkpt lat="47.44661" lon="7.21935">
        <ele>552.7</ele>
        <time>2021-10-03T09:18:19Z</time>
      </trkpt>
      <trkpt lat="47.44661" lon="7.21935">
        <ele>552.7</ele>
        <time>2021-10-03T09:18:24Z</time>
      </trkpt>
      <trkpt lat="47.44661" lon="7.21935">
        <ele>552.7</ele>
        <time>2021-10-03T09:18:30Z</time>
      </trkpt>
      <trkpt lat="47.44662" lon="7.21935">
        <ele>552.7</ele>
        <time>2021-10-03T09:18:40Z</time>
      </trkpt>
      <trkpt lat="47.44662" lon="7.21935">
        <ele>552.7</ele>
        <time>2021-10-03T09:18:44Z</time>
      </trkpt>
      <trkpt lat="47.44662" lon="7.21935">
        <ele>552.7</ele>
        <time>2021-10-03T09:19:02Z</time>
      </trkpt>
      <trkpt lat="47.44663" lon="7.21935">
        <ele>552.7</ele>
        <time>2021-10-03T09:19:07Z</time>
      </trkpt>
      <trkpt lat="47.44663" lon="7.21935">
        <ele>552.7</ele>
        <time>2021-10-03T09:19:20Z</time>
      </trkpt>
      <trkpt lat="47.44663" lon="7.21935">
        <ele>552.7</ele>
        <time>2021-10-03T09:19:21Z</time>
      </trkpt>
      <trkpt lat="47.44663" lon="7.21935">
        <ele>552.7</ele>
        <time>2021-10-03T09:21:17Z</time>
      </trkpt>
      <trkpt lat="47.44663" lon="7.21935">
        <ele>552.7</ele>
        <time>2021-10-03T09:21:18Z</time>
      </trkpt>
      <trkpt lat="47.44662" lon="7.21935">
        <ele>552.7</ele>
        <time>2021-10-03T09:22:18Z</time>
      </trkpt>
      <trkpt lat="47.44662" lon="7.21935">
        <ele>552.7</ele>
        <time>2021-10-03T09:22:19Z</time>
      </trkpt>
      <trkpt lat="47.44662" lon="7.21935">
        <ele>552.7</ele>
        <time>2021-10-03T09:23:28Z</time>
      </trkpt>
      <trkpt lat="47.44662" lon="7.21935">
        <ele>552.7</ele>
        <time>2021-10-03T09:23:29Z</time>
      </trkpt>
      <trkpt lat="47.44662" lon="7.21936">
        <ele>552.7</ele>
        <time>2021-10-03T09:24:32Z</time>
      </trkpt>
      <trkpt lat="47.44662" lon="7.21936">
        <ele>552.7</ele>
        <time>2021-10-03T09:24:33Z</time>
      </trkpt>
      <trkpt lat="47.44662" lon="7.21935">
        <ele>552.7</ele>
        <time>2021-10-03T09:24:58Z</time>
      </trkpt>
      <trkpt lat="47.44662" lon="7.21936">
        <ele>552.7</ele>
        <time>2021-10-03T09:25:02Z</time>
      </trkpt>
      <trkpt lat="47.44662" lon="7.21936">
        <ele>552.7</ele>
        <time>2021-10-03T09:25:07Z</time>
      </trkpt>
      <trkpt lat="47.44662" lon="7.21936">
        <ele>552.7</ele>
        <time>2021-10-03T09:25:08Z</time>
      </trkpt>
      <trkpt lat="47.44662" lon="7.21937">
        <ele>552.7</ele>
        <time>2021-10-03T09:25:10Z</time>
      </trkpt>
      <trkpt lat="47.44662" lon="7.21937">
        <ele>552.7</ele>
        <time>2021-10-03T09:25:11Z</time>
      </trkpt>
      <trkpt lat="47.44662" lon="7.21937">
        <ele>552.7</ele>
        <time>2021-10-03T09:25:13Z</time>
      </trkpt>
      <trkpt lat="47.44662" lon="7.21936">
        <ele>552.7</ele>
        <time>2021-10-03T09:25:19Z</time>
      </trkpt>
      <trkpt lat="47.44663" lon="7.21936">
        <ele>552.7</ele>
        <time>2021-10-03T09:25:21Z</time>
      </trkpt>
      <trkpt lat="47.44662" lon="7.21939">
        <ele>552.8</ele>
        <time>2021-10-03T09:25:27Z</time>
      </trkpt>
      <trkpt lat="47.44663" lon="7.21939">
        <ele>552.8</ele>
        <time>2021-10-03T09:25:33Z</time>
      </trkpt>
      <trkpt lat="47.44663" lon="7.21938">
        <ele>552.8</ele>
        <time>2021-10-03T09:25:36Z</time>
      </trkpt>
      <trkpt lat="47.44663" lon="7.21938">
        <ele>552.8</ele>
        <time>2021-10-03T09:25:37Z</time>
      </trkpt>
      <trkpt lat="47.44653" lon="7.21937">
        <ele>552.8</ele>
        <time>2021-10-03T09:25:51Z</time>
      </trkpt>
      <trkpt lat="47.44647" lon="7.21926">
        <ele>552.9</ele>
        <time>2021-10-03T09:26:00Z</time>
      </trkpt>
      <trkpt lat="47.44642" lon="7.21914">
        <ele>553</ele>
        <time>2021-10-03T09:26:14Z</time>
      </trkpt>
      <trkpt lat="47.44637" lon="7.21902">
        <ele>553</ele>
        <time>2021-10-03T09:26:22Z</time>
      </trkpt>
      <trkpt lat="47.44637" lon="7.21902">
        <ele>553</ele>
        <time>2021-10-03T09:26:23Z</time>
      </trkpt>
      <trkpt lat="47.44637" lon="7.21902">
        <ele>553</ele>
        <time>2021-10-03T09:26:24Z</time>
      </trkpt>
      <trkpt lat="47.44637" lon="7.21902">
        <ele>553</ele>
        <time>2021-10-03T09:26:25Z</time>
      </trkpt>
      <trkpt lat="47.44637" lon="7.21902">
        <ele>553</ele>
        <time>2021-10-03T09:26:26Z</time>
      </trkpt>
      <trkpt lat="47.44628" lon="7.21895">
        <ele>553</ele>
        <time>2021-10-03T09:26:42Z</time>
      </trkpt>
      <trkpt lat="47.44628" lon="7.21883">
        <ele>553</ele>
        <time>2021-10-03T09:26:59Z</time>
      </trkpt>
      <trkpt lat="47.44628" lon="7.21883">
        <ele>553</ele>
        <time>2021-10-03T09:27:04Z</time>
      </trkpt>
      <trkpt lat="47.44629" lon="7.2188">
        <ele>553</ele>
        <time>2021-10-03T09:27:08Z</time>
      </trkpt>
      <trkpt lat="47.44629" lon="7.2188">
        <ele>553</ele>
        <time>2021-10-03T09:27:09Z</time>
      </trkpt>
      <trkpt lat="47.44629" lon="7.21879">
        <ele>553</ele>
        <time>2021-10-03T09:27:12Z</time>
      </trkpt>
      <trkpt lat="47.44629" lon="7.21878">
        <ele>553</ele>
        <time>2021-10-03T09:27:14Z</time>
      </trkpt>
      <trkpt lat="47.44629" lon="7.21877">
        <ele>553</ele>
        <time>2021-10-03T09:27:17Z</time>
      </trkpt>
      <trkpt lat="47.44629" lon="7.21877">
        <ele>553</ele>
        <time>2021-10-03T09:27:18Z</time>
      </trkpt>
      <trkpt lat="47.44628" lon="7.21873">
        <ele>553</ele>
        <time>2021-10-03T09:27:28Z</time>
      </trkpt>
      <trkpt lat="47.44628" lon="7.21873">
        <ele>553</ele>
        <time>2021-10-03T09:27:30Z</time>
      </trkpt>
      <trkpt lat="47.44629" lon="7.21871">
        <ele>553</ele>
        <time>2021-10-03T09:27:47Z</time>
      </trkpt>
      <trkpt lat="47.44628" lon="7.21872">
        <ele>553</ele>
        <time>2021-10-03T09:27:48Z</time>
      </trkpt>
      <trkpt lat="47.44622" lon="7.21866">
        <ele>552.5</ele>
        <time>2021-10-03T09:28:12Z</time>
      </trkpt>
      <trkpt lat="47.44622" lon="7.21866">
        <ele>552.5</ele>
        <time>2021-10-03T09:28:13Z</time>
      </trkpt>
      <trkpt lat="47.44614" lon="7.21858">
        <ele>551.6</ele>
        <time>2021-10-03T09:28:25Z</time>
      </trkpt>
      <trkpt lat="47.44614" lon="7.21844">
        <ele>550.5</ele>
        <time>2021-10-03T09:28:32Z</time>
      </trkpt>
      <trkpt lat="47.4461" lon="7.21831">
        <ele>550.1</ele>
        <time>2021-10-03T09:28:41Z</time>
      </trkpt>
      <trkpt lat="47.44603" lon="7.2182">
        <ele>549.8</ele>
        <time>2021-10-03T09:28:51Z</time>
      </trkpt>
      <trkpt lat="47.44601" lon="7.21806">
        <ele>549.5</ele>
        <time>2021-10-03T09:29:04Z</time>
      </trkpt>
      <trkpt lat="47.44601" lon="7.21793">
        <ele>549.4</ele>
        <time>2021-10-03T09:29:14Z</time>
      </trkpt>
      <trkpt lat="47.44595" lon="7.21782">
        <ele>549.3</ele>
        <time>2021-10-03T09:29:23Z</time>
      </trkpt>
      <trkpt lat="47.44589" lon="7.2177">
        <ele>549.2</ele>
        <time>2021-10-03T09:29:29Z</time>
      </trkpt>
      <trkpt lat="47.44585" lon="7.21757">
        <ele>549.1</ele>
        <time>2021-10-03T09:29:37Z</time>
      </trkpt>
      <trkpt lat="47.44581" lon="7.21744">
        <ele>549.1</ele>
        <time>2021-10-03T09:29:49Z</time>
      </trkpt>
      <trkpt lat="47.44579" lon="7.2173">
        <ele>549</ele>
        <time>2021-10-03T09:29:59Z</time>
      </trkpt>
      <trkpt lat="47.44575" lon="7.21717">
        <ele>548.8</ele>
        <time>2021-10-03T09:30:15Z</time>
      </trkpt>
      <trkpt lat="47.44573" lon="7.21703">
        <ele>548.7</ele>
        <time>2021-10-03T09:30:24Z</time>
      </trkpt>
      <trkpt lat="47.44571" lon="7.2169">
        <ele>548.7</ele>
        <time>2021-10-03T09:30:32Z</time>
      </trkpt>
      <trkpt lat="47.44567" lon="7.21676">
        <ele>548.7</ele>
        <time>2021-10-03T09:30:39Z</time>
      </trkpt>
      <trkpt lat="47.44562" lon="7.21664">
        <ele>548.7</ele>
        <time>2021-10-03T09:30:51Z</time>
      </trkpt>
      <trkpt lat="47.44559" lon="7.21649">
        <ele>548.7</ele>
        <time>2021-10-03T09:31:05Z</time>
      </trkpt>
      <trkpt lat="47.44556" lon="7.21635">
        <ele>548.8</ele>
        <time>2021-10-03T09:31:13Z</time>
      </trkpt>
      <trkpt lat="47.44554" lon="7.21622">
        <ele>548.9</ele>
        <time>2021-10-03T09:31:24Z</time>
      </trkpt>
      <trkpt lat="47.44553" lon="7.21608">
        <ele>549</ele>
        <time>2021-10-03T09:31:34Z</time>
      </trkpt>
      <trkpt lat="47.44553" lon="7.21594">
        <ele>549.1</ele>
        <time>2021-10-03T09:31:44Z</time>
      </trkpt>
      <trkpt lat="47.44548" lon="7.21582">
        <ele>549.1</ele>
        <time>2021-10-03T09:31:55Z</time>
      </trkpt>
      <trkpt lat="47.44546" lon="7.21568">
        <ele>549.2</ele>
        <time>2021-10-03T09:32:04Z</time>
      </trkpt>
      <trkpt lat="47.44546" lon="7.21554">
        <ele>549.4</ele>
        <time>2021-10-03T09:32:15Z</time>
      </trkpt>
      <trkpt lat="47.44543" lon="7.21541">
        <ele>549.4</ele>
        <time>2021-10-03T09:32:23Z</time>
      </trkpt>
      <trkpt lat="47.44541" lon="7.21536">
        <ele>548.9</ele>
        <time>2021-10-03T09:32:27Z</time>
      </trkpt>
      <trkpt lat="47.44541" lon="7.21536">
        <ele>548.8</ele>
        <time>2021-10-03T09:32:28Z</time>
      </trkpt>
      <trkpt lat="47.44543" lon="7.21523">
        <ele>547.4</ele>
        <time>2021-10-03T09:32:43Z</time>
      </trkpt>
      <trkpt lat="47.4454" lon="7.2151">
        <ele>546</ele>
        <time>2021-10-03T09:32:52Z</time>
      </trkpt>
      <trkpt lat="47.4454" lon="7.21496">
        <ele>544.5</ele>
        <time>2021-10-03T09:33:06Z</time>
      </trkpt>
      <trkpt lat="47.44537" lon="7.21487">
        <ele>543.5</ele>
        <time>2021-10-03T09:33:13Z</time>
      </trkpt>
      <trkpt lat="47.44537" lon="7.21486">
        <ele>543.3</ele>
        <time>2021-10-03T09:33:14Z</time>
      </trkpt>
      <trkpt lat="47.44539" lon="7.21472">
        <ele>541.8</ele>
        <time>2021-10-03T09:33:27Z</time>
      </trkpt>
      <trkpt lat="47.44535" lon="7.2146">
        <ele>540.3</ele>
        <time>2021-10-03T09:33:33Z</time>
      </trkpt>
      <trkpt lat="47.4453" lon="7.21447">
        <ele>539.2</ele>
        <time>2021-10-03T09:33:37Z</time>
      </trkpt>
      <trkpt lat="47.4453" lon="7.2143">
        <ele>539.2</ele>
        <time>2021-10-03T09:33:49Z</time>
      </trkpt>
      <trkpt lat="47.4454" lon="7.21426">
        <ele>539.3</ele>
        <time>2021-10-03T09:34:12Z</time>
      </trkpt>
      <trkpt lat="47.44546" lon="7.21426">
        <ele>539.3</ele>
        <time>2021-10-03T09:34:22Z</time>
      </trkpt>
      <trkpt lat="47.44547" lon="7.21426">
        <ele>539.3</ele>
        <time>2021-10-03T09:34:23Z</time>
      </trkpt>
      <trkpt lat="47.44548" lon="7.21428">
        <ele>539.3</ele>
        <time>2021-10-03T09:34:40Z</time>
      </trkpt>
      <trkpt lat="47.44548" lon="7.21428">
        <ele>539.3</ele>
        <time>2021-10-03T09:34:41Z</time>
      </trkpt>
      <trkpt lat="47.44556" lon="7.21433">
        <ele>542</ele>
        <time>2021-10-03T09:35:43Z</time>
      </trkpt>
      <trkpt lat="47.44556" lon="7.21433">
        <ele>542</ele>
        <time>2021-10-03T09:35:46Z</time>
      </trkpt>
      <trkpt lat="47.44556" lon="7.21433">
        <ele>542</ele>
        <time>2021-10-03T09:35:57Z</time>
      </trkpt>
      <trkpt lat="47.44556" lon="7.21433">
        <ele>542</ele>
        <time>2021-10-03T09:35:58Z</time>
      </trkpt>
      <trkpt lat="47.44556" lon="7.21433">
        <ele>542</ele>
        <time>2021-10-03T09:36:26Z</time>
      </trkpt>
      <trkpt lat="47.44556" lon="7.21433">
        <ele>542</ele>
        <time>2021-10-03T09:36:27Z</time>
      </trkpt>
      <trkpt lat="47.44556" lon="7.21432">
        <ele>542</ele>
        <time>2021-10-03T09:36:29Z</time>
      </trkpt>
      <trkpt lat="47.44556" lon="7.21432">
        <ele>542</ele>
        <time>2021-10-03T09:36:30Z</time>
      </trkpt>
      <trkpt lat="47.44555" lon="7.21433">
        <ele>542</ele>
        <time>2021-10-03T09:36:40Z</time>
      </trkpt>
      <trkpt lat="47.44555" lon="7.21433">
        <ele>542</ele>
        <time>2021-10-03T09:36:41Z</time>
      </trkpt>
      <trkpt lat="47.44555" lon="7.21433">
        <ele>542</ele>
        <time>2021-10-03T09:36:59Z</time>
      </trkpt>
      <trkpt lat="47.44555" lon="7.21433">
        <ele>542</ele>
        <time>2021-10-03T09:37:02Z</time>
      </trkpt>
      <trkpt lat="47.44555" lon="7.21434">
        <ele>542</ele>
        <time>2021-10-03T09:37:06Z</time>
      </trkpt>
      <trkpt lat="47.44555" lon="7.21434">
        <ele>542</ele>
        <time>2021-10-03T09:37:07Z</time>
      </trkpt>
      <trkpt lat="47.44555" lon="7.21434">
        <ele>542</ele>
        <time>2021-10-03T09:37:11Z</time>
      </trkpt>
      <trkpt lat="47.44554" lon="7.21435">
        <ele>542</ele>
        <time>2021-10-03T09:37:13Z</time>
      </trkpt>
      <trkpt lat="47.44554" lon="7.21435">
        <ele>542</ele>
        <time>2021-10-03T09:37:37Z</time>
      </trkpt>
      <trkpt lat="47.44554" lon="7.21435">
        <ele>542</ele>
        <time>2021-10-03T09:37:39Z</time>
      </trkpt>
      <trkpt lat="47.44554" lon="7.21436">
        <ele>542</ele>
        <time>2021-10-03T09:37:49Z</time>
      </trkpt>
      <trkpt lat="47.44554" lon="7.21436">
        <ele>542</ele>
        <time>2021-10-03T09:37:50Z</time>
      </trkpt>
      <trkpt lat="47.44554" lon="7.21436">
        <ele>542</ele>
        <time>2021-10-03T09:37:54Z</time>
      </trkpt>
      <trkpt lat="47.44554" lon="7.21436">
        <ele>542</ele>
        <time>2021-10-03T09:37:55Z</time>
      </trkpt>
      <trkpt lat="47.44554" lon="7.21437">
        <ele>542</ele>
        <time>2021-10-03T09:37:56Z</time>
      </trkpt>
      <trkpt lat="47.44554" lon="7.21437">
        <ele>542</ele>
        <time>2021-10-03T09:37:59Z</time>
      </trkpt>
      <trkpt lat="47.44553" lon="7.21437">
        <ele>542</ele>
        <time>2021-10-03T09:38:03Z</time>
      </trkpt>
      <trkpt lat="47.44553" lon="7.21437">
        <ele>542</ele>
        <time>2021-10-03T09:38:04Z</time>
      </trkpt>
      <trkpt lat="47.44553" lon="7.21437">
        <ele>542</ele>
        <time>2021-10-03T09:38:25Z</time>
      </trkpt>
      <trkpt lat="47.44553" lon="7.21437">
        <ele>542</ele>
        <time>2021-10-03T09:38:26Z</time>
      </trkpt>
      <trkpt lat="47.44553" lon="7.21437">
        <ele>542</ele>
        <time>2021-10-03T09:38:42Z</time>
      </trkpt>
      <trkpt lat="47.44553" lon="7.21438">
        <ele>542</ele>
        <time>2021-10-03T09:38:43Z</time>
      </trkpt>
      <trkpt lat="47.44553" lon="7.21438">
        <ele>542</ele>
        <time>2021-10-03T09:40:03Z</time>
      </trkpt>
      <trkpt lat="47.44553" lon="7.21438">
        <ele>542</ele>
        <time>2021-10-03T09:40:04Z</time>
      </trkpt>
      <trkpt lat="47.44553" lon="7.21438">
        <ele>542</ele>
        <time>2021-10-03T09:40:05Z</time>
      </trkpt>
      <trkpt lat="47.44553" lon="7.21438">
        <ele>542</ele>
        <time>2021-10-03T09:40:07Z</time>
      </trkpt>
      <trkpt lat="47.44553" lon="7.21438">
        <ele>542</ele>
        <time>2021-10-03T09:40:15Z</time>
      </trkpt>
      <trkpt lat="47.44553" lon="7.21438">
        <ele>542</ele>
        <time>2021-10-03T09:40:16Z</time>
      </trkpt>
      <trkpt lat="47.44553" lon="7.21438">
        <ele>542</ele>
        <time>2021-10-03T09:40:20Z</time>
      </trkpt>
      <trkpt lat="47.44553" lon="7.21438">
        <ele>542</ele>
        <time>2021-10-03T09:40:21Z</time>
      </trkpt>
      <trkpt lat="47.44553" lon="7.21438">
        <ele>542</ele>
        <time>2021-10-03T09:40:27Z</time>
      </trkpt>
      <trkpt lat="47.44553" lon="7.21438">
        <ele>542</ele>
        <time>2021-10-03T09:40:28Z</time>
      </trkpt>
      <trkpt lat="47.44553" lon="7.21438">
        <ele>542</ele>
        <time>2021-10-03T09:41:01Z</time>
      </trkpt>
      <trkpt lat="47.44553" lon="7.21438">
        <ele>542</ele>
        <time>2021-10-03T09:41:02Z</time>
      </trkpt>
      <trkpt lat="47.44553" lon="7.21438">
        <ele>542</ele>
        <time>2021-10-03T09:41:14Z</time>
      </trkpt>
      <trkpt lat="47.44553" lon="7.21438">
        <ele>542</ele>
        <time>2021-10-03T09:41:15Z</time>
      </trkpt>
      <trkpt lat="47.44553" lon="7.21438">
        <ele>542</ele>
        <time>2021-10-03T09:41:21Z</time>
      </trkpt>
      <trkpt lat="47.44553" lon="7.21438">
        <ele>542</ele>
        <time>2021-10-03T09:41:22Z</time>
      </trkpt>
      <trkpt lat="47.44553" lon="7.21438">
        <ele>542</ele>
        <time>2021-10-03T09:41:25Z</time>
      </trkpt>
      <trkpt lat="47.44553" lon="7.21438">
        <ele>542</ele>
        <time>2021-10-03T09:41:26Z</time>
      </trkpt>
      <trkpt lat="47.44553" lon="7.21438">
        <ele>542</ele>
        <time>2021-10-03T09:41:34Z</time>
      </trkpt>
      <trkpt lat="47.44553" lon="7.21438">
        <ele>542</ele>
        <time>2021-10-03T09:41:35Z</time>
      </trkpt>
      <trkpt lat="47.44553" lon="7.21438">
        <ele>542</ele>
        <time>2021-10-03T09:41:37Z</time>
      </trkpt>
      <trkpt lat="47.44553" lon="7.21438">
        <ele>542</ele>
        <time>2021-10-03T09:41:38Z</time>
      </trkpt>
      <trkpt lat="47.44554" lon="7.21438">
        <ele>542</ele>
        <time>2021-10-03T09:42:15Z</time>
      </trkpt>
      <trkpt lat="47.44554" lon="7.21438">
        <ele>542</ele>
        <time>2021-10-03T09:42:16Z</time>
      </trkpt>
      <trkpt lat="47.44553" lon="7.21439">
        <ele>542</ele>
        <time>2021-10-03T09:43:28Z</time>
      </trkpt>
      <trkpt lat="47.44553" lon="7.21439">
        <ele>542</ele>
        <time>2021-10-03T09:43:30Z</time>
      </trkpt>
      <trkpt lat="47.44553" lon="7.21439">
        <ele>542</ele>
        <time>2021-10-03T09:43:45Z</time>
      </trkpt>
      <trkpt lat="47.44553" lon="7.21439">
        <ele>542</ele>
        <time>2021-10-03T09:43:46Z</time>
      </trkpt>
      <trkpt lat="47.44553" lon="7.2144">
        <ele>542</ele>
        <time>2021-10-03T09:43:47Z</time>
      </trkpt>
      <trkpt lat="47.44554" lon="7.21442">
        <ele>542</ele>
        <time>2021-10-03T09:44:05Z</time>
      </trkpt>
      <trkpt lat="47.44555" lon="7.21441">
        <ele>542</ele>
        <time>2021-10-03T09:44:07Z</time>
      </trkpt>
      <trkpt lat="47.44554" lon="7.21442">
        <ele>542</ele>
        <time>2021-10-03T09:44:16Z</time>
      </trkpt>
      <trkpt lat="47.44554" lon="7.21442">
        <ele>542</ele>
        <time>2021-10-03T09:44:17Z</time>
      </trkpt>
      <trkpt lat="47.44554" lon="7.21442">
        <ele>542</ele>
        <time>2021-10-03T09:44:21Z</time>
      </trkpt>
      <trkpt lat="47.44554" lon="7.21441">
        <ele>542</ele>
        <time>2021-10-03T09:44:27Z</time>
      </trkpt>
      <trkpt lat="47.44554" lon="7.21441">
        <ele>542</ele>
        <time>2021-10-03T09:44:29Z</time>
      </trkpt>
      <trkpt lat="47.44554" lon="7.2144">
        <ele>542</ele>
        <time>2021-10-03T09:44:31Z</time>
      </trkpt>
      <trkpt lat="47.44554" lon="7.2144">
        <ele>542</ele>
        <time>2021-10-03T09:44:33Z</time>
      </trkpt>
      <trkpt lat="47.44554" lon="7.2144">
        <ele>542</ele>
        <time>2021-10-03T09:44:34Z</time>
      </trkpt>
      <trkpt lat="47.44554" lon="7.2144">
        <ele>542</ele>
        <time>2021-10-03T09:44:37Z</time>
      </trkpt>
      <trkpt lat="47.44555" lon="7.2144">
        <ele>542</ele>
        <time>2021-10-03T09:44:40Z</time>
      </trkpt>
      <trkpt lat="47.44555" lon="7.2144">
        <ele>542</ele>
        <time>2021-10-03T09:44:42Z</time>
      </trkpt>
      <trkpt lat="47.44555" lon="7.2144">
        <ele>542</ele>
        <time>2021-10-03T09:44:52Z</time>
      </trkpt>
      <trkpt lat="47.44555" lon="7.2144">
        <ele>542</ele>
        <time>2021-10-03T09:44:53Z</time>
      </trkpt>
      <trkpt lat="47.44555" lon="7.21441">
        <ele>542</ele>
        <time>2021-10-03T09:45:10Z</time>
      </trkpt>
      <trkpt lat="47.44556" lon="7.2144">
        <ele>542</ele>
        <time>2021-10-03T09:45:13Z</time>
      </trkpt>
      <trkpt lat="47.44555" lon="7.21441">
        <ele>542</ele>
        <time>2021-10-03T09:45:14Z</time>
      </trkpt>
      <trkpt lat="47.44555" lon="7.21441">
        <ele>542</ele>
        <time>2021-10-03T09:45:20Z</time>
      </trkpt>
      <trkpt lat="47.44555" lon="7.21441">
        <ele>542</ele>
        <time>2021-10-03T09:45:24Z</time>
      </trkpt>
      <trkpt lat="47.44555" lon="7.21441">
        <ele>542</ele>
        <time>2021-10-03T09:45:25Z</time>
      </trkpt>
      <trkpt lat="47.44554" lon="7.21441">
        <ele>542</ele>
        <time>2021-10-03T09:45:31Z</time>
      </trkpt>
      <trkpt lat="47.44554" lon="7.21441">
        <ele>542</ele>
        <time>2021-10-03T09:45:32Z</time>
      </trkpt>
      <trkpt lat="47.44555" lon="7.21441">
        <ele>542</ele>
        <time>2021-10-03T09:45:34Z</time>
      </trkpt>
      <trkpt lat="47.44555" lon="7.2144">
        <ele>542</ele>
        <time>2021-10-03T09:45:35Z</time>
      </trkpt>
      <trkpt lat="47.44555" lon="7.2144">
        <ele>542</ele>
        <time>2021-10-03T09:45:50Z</time>
      </trkpt>
      <trkpt lat="47.44554" lon="7.2144">
        <ele>542</ele>
        <time>2021-10-03T09:45:53Z</time>
      </trkpt>
      <trkpt lat="47.44554" lon="7.2144">
        <ele>542</ele>
        <time>2021-10-03T09:45:55Z</time>
      </trkpt>
      <trkpt lat="47.44555" lon="7.2144">
        <ele>542</ele>
        <time>2021-10-03T09:45:57Z</time>
      </trkpt>
      <trkpt lat="47.44554" lon="7.2144">
        <ele>542</ele>
        <time>2021-10-03T09:45:58Z</time>
      </trkpt>
      <trkpt lat="47.44554" lon="7.2144">
        <ele>542</ele>
        <time>2021-10-03T09:45:59Z</time>
      </trkpt>
      <trkpt lat="47.44555" lon="7.2144">
        <ele>542</ele>
        <time>2021-10-03T09:46:00Z</time>
      </trkpt>
      <trkpt lat="47.44554" lon="7.21439">
        <ele>542</ele>
        <time>2021-10-03T09:46:05Z</time>
      </trkpt>
      <trkpt lat="47.44554" lon="7.21438">
        <ele>542</ele>
        <time>2021-10-03T09:48:50Z</time>
      </trkpt>
      <trkpt lat="47.44561" lon="7.21428">
        <ele>542</ele>
        <time>2021-10-03T09:49:08Z</time>
      </trkpt>
      <trkpt lat="47.44561" lon="7.21427">
        <ele>542</ele>
        <time>2021-10-03T09:49:11Z</time>
      </trkpt>
      <trkpt lat="47.44562" lon="7.21427">
        <ele>542</ele>
        <time>2021-10-03T09:49:12Z</time>
      </trkpt>
      <trkpt lat="47.44562" lon="7.21424">
        <ele>542</ele>
        <time>2021-10-03T09:49:25Z</time>
      </trkpt>
      <trkpt lat="47.44562" lon="7.21426">
        <ele>542</ele>
        <time>2021-10-03T09:49:26Z</time>
      </trkpt>
      <trkpt lat="47.44558" lon="7.21435">
        <ele>542</ele>
        <time>2021-10-03T09:49:38Z</time>
      </trkpt>
      <trkpt lat="47.44558" lon="7.21435">
        <ele>542</ele>
        <time>2021-10-03T09:49:39Z</time>
      </trkpt>
      <trkpt lat="47.44553" lon="7.21434">
        <ele>542</ele>
        <time>2021-10-03T09:50:06Z</time>
      </trkpt>
      <trkpt lat="47.44553" lon="7.21433">
        <ele>542</ele>
        <time>2021-10-03T09:50:07Z</time>
      </trkpt>
      <trkpt lat="47.44552" lon="7.21433">
        <ele>542</ele>
        <time>2021-10-03T09:50:13Z</time>
      </trkpt>
      <trkpt lat="47.44552" lon="7.21433">
        <ele>542</ele>
        <time>2021-10-03T09:50:14Z</time>
      </trkpt>
      <trkpt lat="47.44552" lon="7.21434">
        <ele>542</ele>
        <time>2021-10-03T09:50:16Z</time>
      </trkpt>
      <trkpt lat="47.44552" lon="7.21433">
        <ele>542</ele>
        <time>2021-10-03T09:50:17Z</time>
      </trkpt>
      <trkpt lat="47.44552" lon="7.21435">
        <ele>542</ele>
        <time>2021-10-03T09:50:28Z</time>
      </trkpt>
      <trkpt lat="47.44552" lon="7.21435">
        <ele>542</ele>
        <time>2021-10-03T09:50:29Z</time>
      </trkpt>
      <trkpt lat="47.44559" lon="7.21433">
        <ele>542</ele>
        <time>2021-10-03T09:51:11Z</time>
      </trkpt>
      <trkpt lat="47.44559" lon="7.21433">
        <ele>542</ele>
        <time>2021-10-03T09:51:12Z</time>
      </trkpt>
      <trkpt lat="47.44559" lon="7.21431">
        <ele>542</ele>
        <time>2021-10-03T09:51:14Z</time>
      </trkpt>
      <trkpt lat="47.44559" lon="7.21432">
        <ele>542</ele>
        <time>2021-10-03T09:51:15Z</time>
      </trkpt>
      <trkpt lat="47.44558" lon="7.21437">
        <ele>542</ele>
        <time>2021-10-03T09:51:22Z</time>
      </trkpt>
      <trkpt lat="47.44558" lon="7.21437">
        <ele>542</ele>
        <time>2021-10-03T09:51:23Z</time>
      </trkpt>
      <trkpt lat="47.44556" lon="7.21438">
        <ele>542</ele>
        <time>2021-10-03T09:51:31Z</time>
      </trkpt>
      <trkpt lat="47.44556" lon="7.21438">
        <ele>542</ele>
        <time>2021-10-03T09:51:33Z</time>
      </trkpt>
      <trkpt lat="47.44556" lon="7.21438">
        <ele>542</ele>
        <time>2021-10-03T09:51:34Z</time>
      </trkpt>
      <trkpt lat="47.44555" lon="7.21437">
        <ele>542</ele>
        <time>2021-10-03T09:51:35Z</time>
      </trkpt>
      <trkpt lat="47.44559" lon="7.21442">
        <ele>542</ele>
        <time>2021-10-03T09:51:57Z</time>
      </trkpt>
      <trkpt lat="47.44559" lon="7.21443">
        <ele>542</ele>
        <time>2021-10-03T09:51:58Z</time>
      </trkpt>
      <trkpt lat="47.4456" lon="7.21444">
        <ele>542</ele>
        <time>2021-10-03T09:52:05Z</time>
      </trkpt>
      <trkpt lat="47.4456" lon="7.21443">
        <ele>542</ele>
        <time>2021-10-03T09:52:08Z</time>
      </trkpt>
      <trkpt lat="47.44557" lon="7.21445">
        <ele>542</ele>
        <time>2021-10-03T09:52:18Z</time>
      </trkpt>
      <trkpt lat="47.44557" lon="7.21445">
        <ele>542</ele>
        <time>2021-10-03T09:52:21Z</time>
      </trkpt>
      <trkpt lat="47.44557" lon="7.21445">
        <ele>542</ele>
        <time>2021-10-03T09:52:24Z</time>
      </trkpt>
      <trkpt lat="47.44557" lon="7.21445">
        <ele>542</ele>
        <time>2021-10-03T09:52:53Z</time>
      </trkpt>
      <trkpt lat="47.44557" lon="7.21445">
        <ele>542</ele>
        <time>2021-10-03T09:52:54Z</time>
      </trkpt>
      <trkpt lat="47.44557" lon="7.21445">
        <ele>542</ele>
        <time>2021-10-03T09:53:05Z</time>
      </trkpt>
      <trkpt lat="47.44557" lon="7.21445">
        <ele>542</ele>
        <time>2021-10-03T09:53:06Z</time>
      </trkpt>
      <trkpt lat="47.44557" lon="7.21445">
        <ele>542</ele>
        <time>2021-10-03T09:53:12Z</time>
      </trkpt>
      <trkpt lat="47.44557" lon="7.21445">
        <ele>542</ele>
        <time>2021-10-03T09:53:13Z</time>
      </trkpt>
      <trkpt lat="47.44556" lon="7.21445">
        <ele>542</ele>
        <time>2021-10-03T09:53:21Z</time>
      </trkpt>
      <trkpt lat="47.44557" lon="7.21445">
        <ele>542</ele>
        <time>2021-10-03T09:53:23Z</time>
      </trkpt>
      <trkpt lat="47.44557" lon="7.21445">
        <ele>542</ele>
        <time>2021-10-03T09:53:30Z</time>
      </trkpt>
      <trkpt lat="47.44557" lon="7.21445">
        <ele>542</ele>
        <time>2021-10-03T09:53:31Z</time>
      </trkpt>
      <trkpt lat="47.44557" lon="7.21445">
        <ele>542</ele>
        <time>2021-10-03T09:53:39Z</time>
      </trkpt>
      <trkpt lat="47.44557" lon="7.21445">
        <ele>542</ele>
        <time>2021-10-03T09:53:40Z</time>
      </trkpt>
      <trkpt lat="47.44556" lon="7.21444">
        <ele>542</ele>
        <time>2021-10-03T09:53:45Z</time>
      </trkpt>
      <trkpt lat="47.44551" lon="7.21433">
        <ele>542</ele>
        <time>2021-10-03T09:53:59Z</time>
      </trkpt>
      <trkpt lat="47.44549" lon="7.21423">
        <ele>542</ele>
        <time>2021-10-03T09:54:38Z</time>
      </trkpt>
      <trkpt lat="47.4455" lon="7.21423">
        <ele>542</ele>
        <time>2021-10-03T09:54:39Z</time>
      </trkpt>
      <trkpt lat="47.4455" lon="7.21421">
        <ele>542</ele>
        <time>2021-10-03T09:54:45Z</time>
      </trkpt>
      <trkpt lat="47.4455" lon="7.21421">
        <ele>542</ele>
        <time>2021-10-03T09:54:46Z</time>
      </trkpt>
      <trkpt lat="47.4455" lon="7.21423">
        <ele>542</ele>
        <time>2021-10-03T09:54:51Z</time>
      </trkpt>
      <trkpt lat="47.4455" lon="7.21424">
        <ele>542</ele>
        <time>2021-10-03T09:54:52Z</time>
      </trkpt>
      <trkpt lat="47.44549" lon="7.21425">
        <ele>542</ele>
        <time>2021-10-03T09:54:54Z</time>
      </trkpt>
      <trkpt lat="47.44549" lon="7.21426">
        <ele>542</ele>
        <time>2021-10-03T09:54:55Z</time>
      </trkpt>
      <trkpt lat="47.44549" lon="7.21427">
        <ele>542</ele>
        <time>2021-10-03T09:54:58Z</time>
      </trkpt>
      <trkpt lat="47.44549" lon="7.21428">
        <ele>542</ele>
        <time>2021-10-03T09:54:59Z</time>
      </trkpt>
      <trkpt lat="47.44545" lon="7.21425">
        <ele>542</ele>
        <time>2021-10-03T09:55:18Z</time>
      </trkpt>
      <trkpt lat="47.44546" lon="7.21425">
        <ele>542</ele>
        <time>2021-10-03T09:55:19Z</time>
      </trkpt>
      <trkpt lat="47.44546" lon="7.21425">
        <ele>542</ele>
        <time>2021-10-03T09:55:20Z</time>
      </trkpt>
      <trkpt lat="47.44545" lon="7.21424">
        <ele>542</ele>
        <time>2021-10-03T09:55:21Z</time>
      </trkpt>
      <trkpt lat="47.44551" lon="7.2142">
        <ele>542</ele>
        <time>2021-10-03T09:55:32Z</time>
      </trkpt>
      <trkpt lat="47.44551" lon="7.2142">
        <ele>542</ele>
        <time>2021-10-03T09:55:33Z</time>
      </trkpt>
      <trkpt lat="47.44555" lon="7.21424">
        <ele>542</ele>
        <time>2021-10-03T09:55:47Z</time>
      </trkpt>
      <trkpt lat="47.44556" lon="7.21425">
        <ele>542</ele>
        <time>2021-10-03T09:55:48Z</time>
      </trkpt>
      <trkpt lat="47.44557" lon="7.21431">
        <ele>542.1</ele>
        <time>2021-10-03T09:56:11Z</time>
      </trkpt>
      <trkpt lat="47.44558" lon="7.21431">
        <ele>542.1</ele>
        <time>2021-10-03T09:56:12Z</time>
      </trkpt>
      <trkpt lat="47.44562" lon="7.21434">
        <ele>542.1</ele>
        <time>2021-10-03T09:56:47Z</time>
      </trkpt>
      <trkpt lat="47.44562" lon="7.21434">
        <ele>542.1</ele>
        <time>2021-10-03T09:56:48Z</time>
      </trkpt>
      <trkpt lat="47.44554" lon="7.21427">
        <ele>542.1</ele>
        <time>2021-10-03T09:56:54Z</time>
      </trkpt>
      <trkpt lat="47.44548" lon="7.21438">
        <ele>542.1</ele>
        <time>2021-10-03T09:57:27Z</time>
      </trkpt>
      <trkpt lat="47.44551" lon="7.21451">
        <ele>546.3</ele>
        <time>2021-10-03T09:57:39Z</time>
      </trkpt>
      <trkpt lat="47.44556" lon="7.21464">
        <ele>546.3</ele>
        <time>2021-10-03T09:57:43Z</time>
      </trkpt>
      <trkpt lat="47.44552" lon="7.21476">
        <ele>546.3</ele>
        <time>2021-10-03T09:57:59Z</time>
      </trkpt>
      <trkpt lat="47.44555" lon="7.21484">
        <ele>546.3</ele>
        <time>2021-10-03T09:58:11Z</time>
      </trkpt>
      <trkpt lat="47.44554" lon="7.21483">
        <ele>546.3</ele>
        <time>2021-10-03T09:58:12Z</time>
      </trkpt>
      <trkpt lat="47.44554" lon="7.21483">
        <ele>546.3</ele>
        <time>2021-10-03T09:58:14Z</time>
      </trkpt>
      <trkpt lat="47.44554" lon="7.21484">
        <ele>546.3</ele>
        <time>2021-10-03T09:58:16Z</time>
      </trkpt>
      <trkpt lat="47.44563" lon="7.21478">
        <ele>546.3</ele>
        <time>2021-10-03T09:58:33Z</time>
      </trkpt>
      <trkpt lat="47.44573" lon="7.21478">
        <ele>547.7</ele>
        <time>2021-10-03T09:58:41Z</time>
      </trkpt>
      <trkpt lat="47.44581" lon="7.21484">
        <ele>549.1</ele>
        <time>2021-10-03T09:58:51Z</time>
      </trkpt>
      <trkpt lat="47.4459" lon="7.21491">
        <ele>550.2</ele>
        <time>2021-10-03T09:58:57Z</time>
      </trkpt>
      <trkpt lat="47.44583" lon="7.21499">
        <ele>550.5</ele>
        <time>2021-10-03T09:59:17Z</time>
      </trkpt>
      <trkpt lat="47.44576" lon="7.21508">
        <ele>550.6</ele>
        <time>2021-10-03T09:59:28Z</time>
      </trkpt>
      <trkpt lat="47.44574" lon="7.21519">
        <ele>550.5</ele>
        <time>2021-10-03T09:59:54Z</time>
      </trkpt>
      <trkpt lat="47.44574" lon="7.21519">
        <ele>550.5</ele>
        <time>2021-10-03T09:59:55Z</time>
      </trkpt>
      <trkpt lat="47.44573" lon="7.21521">
        <ele>550.3</ele>
        <time>2021-10-03T09:59:59Z</time>
      </trkpt>
      <trkpt lat="47.44572" lon="7.21522">
        <ele>550.2</ele>
        <time>2021-10-03T10:00:00Z</time>
      </trkpt>
      <trkpt lat="47.44573" lon="7.21523">
        <ele>550.2</ele>
        <time>2021-10-03T10:00:02Z</time>
      </trkpt>
      <trkpt lat="47.44572" lon="7.21523">
        <ele>550.2</ele>
        <time>2021-10-03T10:00:03Z</time>
      </trkpt>
      <trkpt lat="47.44572" lon="7.21526">
        <ele>550.2</ele>
        <time>2021-10-03T10:00:11Z</time>
      </trkpt>
      <trkpt lat="47.44573" lon="7.21526">
        <ele>550.2</ele>
        <time>2021-10-03T10:00:12Z</time>
      </trkpt>
      <trkpt lat="47.44574" lon="7.2154">
        <ele>550.2</ele>
        <time>2021-10-03T10:00:22Z</time>
      </trkpt>
      <trkpt lat="47.44573" lon="7.21547">
        <ele>550.3</ele>
        <time>2021-10-03T10:00:42Z</time>
      </trkpt>
      <trkpt lat="47.44574" lon="7.21548">
        <ele>550.3</ele>
        <time>2021-10-03T10:00:43Z</time>
      </trkpt>
      <trkpt lat="47.44575" lon="7.21548">
        <ele>550.3</ele>
        <time>2021-10-03T10:00:46Z</time>
      </trkpt>
      <trkpt lat="47.44575" lon="7.21548">
        <ele>550.3</ele>
        <time>2021-10-03T10:00:47Z</time>
      </trkpt>
      <trkpt lat="47.44575" lon="7.21549">
        <ele>550.3</ele>
        <time>2021-10-03T10:00:48Z</time>
      </trkpt>
      <trkpt lat="47.44575" lon="7.21548">
        <ele>550.3</ele>
        <time>2021-10-03T10:00:49Z</time>
      </trkpt>
      <trkpt lat="47.44573" lon="7.21548">
        <ele>550.4</ele>
        <time>2021-10-03T10:01:04Z</time>
      </trkpt>
      <trkpt lat="47.44573" lon="7.21548">
        <ele>550.4</ele>
        <time>2021-10-03T10:01:05Z</time>
      </trkpt>
      <trkpt lat="47.44573" lon="7.21548">
        <ele>550.4</ele>
        <time>2021-10-03T10:01:06Z</time>
      </trkpt>
      <trkpt lat="47.44572" lon="7.21547">
        <ele>550.4</ele>
        <time>2021-10-03T10:01:07Z</time>
      </trkpt>
      <trkpt lat="47.44572" lon="7.21548">
        <ele>550.4</ele>
        <time>2021-10-03T10:01:09Z</time>
      </trkpt>
      <trkpt lat="47.44572" lon="7.21547">
        <ele>550.4</ele>
        <time>2021-10-03T10:01:10Z</time>
      </trkpt>
      <trkpt lat="47.44574" lon="7.21561">
        <ele>550.7</ele>
        <time>2021-10-03T10:01:26Z</time>
      </trkpt>
      <trkpt lat="47.44574" lon="7.21575">
        <ele>551</ele>
        <time>2021-10-03T10:01:52Z</time>
      </trkpt>
      <trkpt lat="47.44575" lon="7.2159">
        <ele>551.3</ele>
        <time>2021-10-03T10:02:05Z</time>
      </trkpt>
      <trkpt lat="47.44573" lon="7.21604">
        <ele>551.6</ele>
        <time>2021-10-03T10:02:13Z</time>
      </trkpt>
      <trkpt lat="47.44581" lon="7.21614">
        <ele>551.8</ele>
        <time>2021-10-03T10:02:26Z</time>
      </trkpt>
      <trkpt lat="47.44588" lon="7.21621">
        <ele>552.2</ele>
        <time>2021-10-03T10:02:36Z</time>
      </trkpt>
      <trkpt lat="47.44591" lon="7.21635">
        <ele>552.9</ele>
        <time>2021-10-03T10:02:54Z</time>
      </trkpt>
      <trkpt lat="47.44595" lon="7.21647">
        <ele>553.6</ele>
        <time>2021-10-03T10:03:01Z</time>
      </trkpt>
      <trkpt lat="47.446" lon="7.2166">
        <ele>554.5</ele>
        <time>2021-10-03T10:03:10Z</time>
      </trkpt>
      <trkpt lat="47.44604" lon="7.21674">
        <ele>555.2</ele>
        <time>2021-10-03T10:03:20Z</time>
      </trkpt>
      <trkpt lat="47.44602" lon="7.21686">
        <ele>555.7</ele>
        <time>2021-10-03T10:03:40Z</time>
      </trkpt>
      <trkpt lat="47.44608" lon="7.21697">
        <ele>556.3</ele>
        <time>2021-10-03T10:03:50Z</time>
      </trkpt>
      <trkpt lat="47.44616" lon="7.21707">
        <ele>557</ele>
        <time>2021-10-03T10:03:54Z</time>
      </trkpt>
      <trkpt lat="47.44621" lon="7.21719">
        <ele>557.7</ele>
        <time>2021-10-03T10:04:01Z</time>
      </trkpt>
      <trkpt lat="47.44628" lon="7.21727">
        <ele>558.2</ele>
        <time>2021-10-03T10:04:14Z</time>
      </trkpt>
      <trkpt lat="47.44635" lon="7.21734">
        <ele>558.3</ele>
        <time>2021-10-03T10:04:25Z</time>
      </trkpt>
      <trkpt lat="47.44635" lon="7.21734">
        <ele>558.4</ele>
        <time>2021-10-03T10:04:26Z</time>
      </trkpt>
      <trkpt lat="47.44641" lon="7.21746">
        <ele>558.3</ele>
        <time>2021-10-03T10:04:36Z</time>
      </trkpt>
      <trkpt lat="47.44647" lon="7.21758">
        <ele>558.1</ele>
        <time>2021-10-03T10:04:47Z</time>
      </trkpt>
      <trkpt lat="47.4465" lon="7.2177">
        <ele>558</ele>
        <time>2021-10-03T10:04:58Z</time>
      </trkpt>
      <trkpt lat="47.44655" lon="7.21783">
        <ele>558.1</ele>
        <time>2021-10-03T10:05:06Z</time>
      </trkpt>
      <trkpt lat="47.4466" lon="7.21794">
        <ele>558.1</ele>
        <time>2021-10-03T10:05:15Z</time>
      </trkpt>
      <trkpt lat="47.44665" lon="7.21803">
        <ele>557.9</ele>
        <time>2021-10-03T10:05:26Z</time>
      </trkpt>
      <trkpt lat="47.44665" lon="7.21804">
        <ele>557.9</ele>
        <time>2021-10-03T10:05:27Z</time>
      </trkpt>
      <trkpt lat="47.44669" lon="7.21817">
        <ele>557.4</ele>
        <time>2021-10-03T10:05:39Z</time>
      </trkpt>
      <trkpt lat="47.44667" lon="7.21831">
        <ele>556.6</ele>
        <time>2021-10-03T10:05:53Z</time>
      </trkpt>
      <trkpt lat="47.44674" lon="7.21841">
        <ele>555.5</ele>
        <time>2021-10-03T10:06:00Z</time>
      </trkpt>
      <trkpt lat="47.44678" lon="7.21854">
        <ele>554.2</ele>
        <time>2021-10-03T10:06:11Z</time>
      </trkpt>
      <trkpt lat="47.44682" lon="7.21866">
        <ele>553.2</ele>
        <time>2021-10-03T10:06:23Z</time>
      </trkpt>
      <trkpt lat="47.44683" lon="7.2187">
        <ele>553.3</ele>
        <time>2021-10-03T10:06:41Z</time>
      </trkpt>
      <trkpt lat="47.44683" lon="7.2187">
        <ele>553.3</ele>
        <time>2021-10-03T10:06:42Z</time>
      </trkpt>
      <trkpt lat="47.44685" lon="7.21871">
        <ele>553.4</ele>
        <time>2021-10-03T10:06:47Z</time>
      </trkpt>
      <trkpt lat="47.44685" lon="7.21871">
        <ele>553.4</ele>
        <time>2021-10-03T10:06:48Z</time>
      </trkpt>
      <trkpt lat="47.44685" lon="7.2187">
        <ele>553.4</ele>
        <time>2021-10-03T10:06:53Z</time>
      </trkpt>
      <trkpt lat="47.44685" lon="7.2187">
        <ele>553.4</ele>
        <time>2021-10-03T10:06:57Z</time>
      </trkpt>
      <trkpt lat="47.44685" lon="7.2187">
        <ele>553.4</ele>
        <time>2021-10-03T10:06:58Z</time>
      </trkpt>
      <trkpt lat="47.44685" lon="7.2187">
        <ele>553.4</ele>
        <time>2021-10-03T10:07:00Z</time>
      </trkpt>
      <trkpt lat="47.44684" lon="7.21869">
        <ele>553.4</ele>
        <time>2021-10-03T10:07:09Z</time>
      </trkpt>
      <trkpt lat="47.44684" lon="7.21869">
        <ele>553.4</ele>
        <time>2021-10-03T10:07:10Z</time>
      </trkpt>
      <trkpt lat="47.44681" lon="7.21869">
        <ele>553.5</ele>
        <time>2021-10-03T10:07:19Z</time>
      </trkpt>
      <trkpt lat="47.44681" lon="7.2187">
        <ele>553.5</ele>
        <time>2021-10-03T10:07:20Z</time>
      </trkpt>
      <trkpt lat="47.44681" lon="7.21869">
        <ele>553.6</ele>
        <time>2021-10-03T10:07:23Z</time>
      </trkpt>
      <trkpt lat="47.44681" lon="7.21868">
        <ele>553.6</ele>
        <time>2021-10-03T10:07:26Z</time>
      </trkpt>
      <trkpt lat="47.44681" lon="7.21871">
        <ele>553.6</ele>
        <time>2021-10-03T10:07:42Z</time>
      </trkpt>
      <trkpt lat="47.44681" lon="7.21872">
        <ele>553.7</ele>
        <time>2021-10-03T10:07:56Z</time>
      </trkpt>
      <trkpt lat="47.44681" lon="7.21872">
        <ele>553.7</ele>
        <time>2021-10-03T10:07:57Z</time>
      </trkpt>
      <trkpt lat="47.44681" lon="7.21872">
        <ele>553.7</ele>
        <time>2021-10-03T10:07:58Z</time>
      </trkpt>
      <trkpt lat="47.44681" lon="7.21872">
        <ele>553.7</ele>
        <time>2021-10-03T10:07:59Z</time>
      </trkpt>
      <trkpt lat="47.44681" lon="7.21873">
        <ele>553.7</ele>
        <time>2021-10-03T10:08:01Z</time>
      </trkpt>
      <trkpt lat="47.44681" lon="7.21873">
        <ele>553.7</ele>
        <time>2021-10-03T10:08:02Z</time>
      </trkpt>
      <trkpt lat="47.44682" lon="7.21873">
        <ele>553.7</ele>
        <time>2021-10-03T10:08:04Z</time>
      </trkpt>
      <trkpt lat="47.44681" lon="7.21872">
        <ele>553.7</ele>
        <time>2021-10-03T10:08:08Z</time>
      </trkpt>
      <trkpt lat="47.44681" lon="7.21872">
        <ele>553.7</ele>
        <time>2021-10-03T10:08:11Z</time>
      </trkpt>
      <trkpt lat="47.44683" lon="7.21868">
        <ele>553.8</ele>
        <time>2021-10-03T10:08:18Z</time>
      </trkpt>
      <trkpt lat="47.44683" lon="7.21869">
        <ele>553.8</ele>
        <time>2021-10-03T10:08:19Z</time>
      </trkpt>
      <trkpt lat="47.44684" lon="7.21883">
        <ele>554.1</ele>
        <time>2021-10-03T10:08:41Z</time>
      </trkpt>
      <trkpt lat="47.44684" lon="7.21884">
        <ele>554.2</ele>
        <time>2021-10-03T10:08:45Z</time>
      </trkpt>
      <trkpt lat="47.44685" lon="7.21885">
        <ele>554.2</ele>
        <time>2021-10-03T10:08:46Z</time>
      </trkpt>
      <trkpt lat="47.44691" lon="7.21894">
        <ele>554.5</ele>
        <time>2021-10-03T10:08:50Z</time>
      </trkpt>
      <trkpt lat="47.44695" lon="7.21907">
        <ele>554.6</ele>
        <time>2021-10-03T10:09:03Z</time>
      </trkpt>
      <trkpt lat="47.44693" lon="7.21908">
        <ele>554.6</ele>
        <time>2021-10-03T10:09:08Z</time>
      </trkpt>
      <trkpt lat="47.44693" lon="7.21908">
        <ele>554.6</ele>
        <time>2021-10-03T10:09:09Z</time>
      </trkpt>
      <trkpt lat="47.44693" lon="7.21909">
        <ele>554.6</ele>
        <time>2021-10-03T10:09:11Z</time>
      </trkpt>
      <trkpt lat="47.44692" lon="7.21908">
        <ele>554.6</ele>
        <time>2021-10-03T10:09:13Z</time>
      </trkpt>
      <trkpt lat="47.44691" lon="7.21909">
        <ele>554.6</ele>
        <time>2021-10-03T10:09:19Z</time>
      </trkpt>
      <trkpt lat="47.44691" lon="7.21909">
        <ele>554.6</ele>
        <time>2021-10-03T10:09:20Z</time>
      </trkpt>
      <trkpt lat="47.4469" lon="7.21909">
        <ele>554.6</ele>
        <time>2021-10-03T10:09:22Z</time>
      </trkpt>
      <trkpt lat="47.44691" lon="7.2191">
        <ele>554.6</ele>
        <time>2021-10-03T10:09:23Z</time>
      </trkpt>
      <trkpt lat="47.44689" lon="7.2191">
        <ele>554.7</ele>
        <time>2021-10-03T10:09:30Z</time>
      </trkpt>
      <trkpt lat="47.4469" lon="7.2191">
        <ele>554.7</ele>
        <time>2021-10-03T10:09:31Z</time>
      </trkpt>
      <trkpt lat="47.4469" lon="7.2191">
        <ele>554.7</ele>
        <time>2021-10-03T10:09:32Z</time>
      </trkpt>
      <trkpt lat="47.4469" lon="7.21911">
        <ele>554.7</ele>
        <time>2021-10-03T10:09:39Z</time>
      </trkpt>
      <trkpt lat="47.4469" lon="7.21912">
        <ele>554.7</ele>
        <time>2021-10-03T10:09:42Z</time>
      </trkpt>
      <trkpt lat="47.4469" lon="7.21912">
        <ele>554.7</ele>
        <time>2021-10-03T10:09:51Z</time>
      </trkpt>
      <trkpt lat="47.4469" lon="7.21913">
        <ele>554.7</ele>
        <time>2021-10-03T10:09:54Z</time>
      </trkpt>
      <trkpt lat="47.4469" lon="7.21913">
        <ele>554.7</ele>
        <time>2021-10-03T10:09:56Z</time>
      </trkpt>
      <trkpt lat="47.4469" lon="7.21913">
        <ele>554.7</ele>
        <time>2021-10-03T10:09:57Z</time>
      </trkpt>
      <trkpt lat="47.44691" lon="7.21914">
        <ele>554.7</ele>
        <time>2021-10-03T10:10:22Z</time>
      </trkpt>
      <trkpt lat="47.44691" lon="7.21914">
        <ele>554.7</ele>
        <time>2021-10-03T10:10:23Z</time>
      </trkpt>
      <trkpt lat="47.44691" lon="7.21914">
        <ele>554.7</ele>
        <time>2021-10-03T10:10:37Z</time>
      </trkpt>
      <trkpt lat="47.4469" lon="7.21914">
        <ele>554.7</ele>
        <time>2021-10-03T10:10:39Z</time>
      </trkpt>
      <trkpt lat="47.44691" lon="7.21915">
        <ele>554.7</ele>
        <time>2021-10-03T10:11:26Z</time>
      </trkpt>
      <trkpt lat="47.44682" lon="7.21915">
        <ele>554.7</ele>
        <time>2021-10-03T10:11:46Z</time>
      </trkpt>
      <trkpt lat="47.44683" lon="7.21925">
        <ele>554.6</ele>
        <time>2021-10-03T10:12:42Z</time>
      </trkpt>
      <trkpt lat="47.44683" lon="7.21924">
        <ele>554.6</ele>
        <time>2021-10-03T10:12:43Z</time>
      </trkpt>
      <trkpt lat="47.44683" lon="7.21924">
        <ele>554.6</ele>
        <time>2021-10-03T10:12:47Z</time>
      </trkpt>
      <trkpt lat="47.44683" lon="7.21924">
        <ele>554.6</ele>
        <time>2021-10-03T10:12:48Z</time>
      </trkpt>
      <trkpt lat="47.44684" lon="7.2192">
        <ele>554.7</ele>
        <time>2021-10-03T10:13:07Z</time>
      </trkpt>
      <trkpt lat="47.44684" lon="7.21919">
        <ele>554.7</ele>
        <time>2021-10-03T10:13:08Z</time>
      </trkpt>
      <trkpt lat="47.44684" lon="7.21919">
        <ele>554.7</ele>
        <time>2021-10-03T10:13:11Z</time>
      </trkpt>
      <trkpt lat="47.44684" lon="7.21919">
        <ele>554.7</ele>
        <time>2021-10-03T10:13:12Z</time>
      </trkpt>
      <trkpt lat="47.44684" lon="7.21914">
        <ele>554.7</ele>
        <time>2021-10-03T10:13:18Z</time>
      </trkpt>
      <trkpt lat="47.44684" lon="7.21914">
        <ele>554.7</ele>
        <time>2021-10-03T10:13:19Z</time>
      </trkpt>
      <trkpt lat="47.44685" lon="7.21914">
        <ele>554.7</ele>
        <time>2021-10-03T10:13:22Z</time>
      </trkpt>
      <trkpt lat="47.44685" lon="7.21914">
        <ele>554.7</ele>
        <time>2021-10-03T10:13:23Z</time>
      </trkpt>
      <trkpt lat="47.44685" lon="7.21914">
        <ele>554.7</ele>
        <time>2021-10-03T10:13:24Z</time>
      </trkpt>
      <trkpt lat="47.44685" lon="7.21914">
        <ele>554.7</ele>
        <time>2021-10-03T10:13:25Z</time>
      </trkpt>
      <trkpt lat="47.44684" lon="7.21911">
        <ele>554.7</ele>
        <time>2021-10-03T10:13:40Z</time>
      </trkpt>
      <trkpt lat="47.44684" lon="7.21912">
        <ele>554.7</ele>
        <time>2021-10-03T10:13:41Z</time>
      </trkpt>
      <trkpt lat="47.44684" lon="7.21911">
        <ele>554.7</ele>
        <time>2021-10-03T10:13:44Z</time>
      </trkpt>
      <trkpt lat="47.44684" lon="7.21912">
        <ele>554.7</ele>
        <time>2021-10-03T10:13:45Z</time>
      </trkpt>
      <trkpt lat="47.44684" lon="7.21911">
        <ele>554.7</ele>
        <time>2021-10-03T10:13:49Z</time>
      </trkpt>
      <trkpt lat="47.44684" lon="7.21912">
        <ele>554.7</ele>
        <time>2021-10-03T10:13:58Z</time>
      </trkpt>
      <trkpt lat="47.44683" lon="7.21914">
        <ele>554.7</ele>
        <time>2021-10-03T10:14:29Z</time>
      </trkpt>
      <trkpt lat="47.44682" lon="7.21913">
        <ele>554.7</ele>
        <time>2021-10-03T10:14:30Z</time>
      </trkpt>
      <trkpt lat="47.44684" lon="7.21917">
        <ele>554.7</ele>
        <time>2021-10-03T10:14:36Z</time>
      </trkpt>
      <trkpt lat="47.44684" lon="7.21918">
        <ele>554.7</ele>
        <time>2021-10-03T10:14:37Z</time>
      </trkpt>
      <trkpt lat="47.44684" lon="7.21918">
        <ele>554.7</ele>
        <time>2021-10-03T10:14:38Z</time>
      </trkpt>
      <trkpt lat="47.44685" lon="7.21918">
        <ele>554.7</ele>
        <time>2021-10-03T10:14:39Z</time>
      </trkpt>
      <trkpt lat="47.44684" lon="7.21916">
        <ele>554.7</ele>
        <time>2021-10-03T10:14:44Z</time>
      </trkpt>
      <trkpt lat="47.44683" lon="7.21916">
        <ele>554.7</ele>
        <time>2021-10-03T10:14:45Z</time>
      </trkpt>
      <trkpt lat="47.44682" lon="7.21916">
        <ele>554.7</ele>
        <time>2021-10-03T10:14:54Z</time>
      </trkpt>
      <trkpt lat="47.44683" lon="7.21917">
        <ele>554.6</ele>
        <time>2021-10-03T10:14:55Z</time>
      </trkpt>
      <trkpt lat="47.44683" lon="7.21917">
        <ele>554.6</ele>
        <time>2021-10-03T10:14:56Z</time>
      </trkpt>
      <trkpt lat="47.44683" lon="7.21917">
        <ele>554.6</ele>
        <time>2021-10-03T10:14:57Z</time>
      </trkpt>
      <trkpt lat="47.44685" lon="7.21922">
        <ele>554.6</ele>
        <time>2021-10-03T10:15:06Z</time>
      </trkpt>
      <trkpt lat="47.44687" lon="7.21923">
        <ele>554.6</ele>
        <time>2021-10-03T10:15:07Z</time>
      </trkpt>
      <trkpt lat="47.44687" lon="7.21923">
        <ele>554.6</ele>
        <time>2021-10-03T10:15:08Z</time>
      </trkpt>
      <trkpt lat="47.44687" lon="7.21922">
        <ele>554.6</ele>
        <time>2021-10-03T10:15:09Z</time>
      </trkpt>
      <trkpt lat="47.44687" lon="7.21922">
        <ele>554.6</ele>
        <time>2021-10-03T10:15:14Z</time>
      </trkpt>
      <trkpt lat="47.44687" lon="7.21921">
        <ele>554.6</ele>
        <time>2021-10-03T10:15:15Z</time>
      </trkpt>
      <trkpt lat="47.44687" lon="7.21921">
        <ele>554.6</ele>
        <time>2021-10-03T10:15:47Z</time>
      </trkpt>
      <trkpt lat="47.44686" lon="7.2192">
        <ele>554.6</ele>
        <time>2021-10-03T10:15:48Z</time>
      </trkpt>
      <trkpt lat="47.44686" lon="7.2192">
        <ele>554.6</ele>
        <time>2021-10-03T10:15:59Z</time>
      </trkpt>
      <trkpt lat="47.44686" lon="7.21919">
        <ele>554.6</ele>
        <time>2021-10-03T10:16:22Z</time>
      </trkpt>
      <trkpt lat="47.44686" lon="7.21919">
        <ele>554.6</ele>
        <time>2021-10-03T10:16:23Z</time>
      </trkpt>
      <trkpt lat="47.44686" lon="7.21918">
        <ele>554.6</ele>
        <time>2021-10-03T10:16:24Z</time>
      </trkpt>
      <trkpt lat="47.44686" lon="7.21918">
        <ele>554.6</ele>
        <time>2021-10-03T10:16:43Z</time>
      </trkpt>
      <trkpt lat="47.44686" lon="7.21917">
        <ele>554.6</ele>
        <time>2021-10-03T10:17:10Z</time>
      </trkpt>
      <trkpt lat="47.44686" lon="7.21917">
        <ele>554.6</ele>
        <time>2021-10-03T10:17:11Z</time>
      </trkpt>
      <trkpt lat="47.44686" lon="7.21916">
        <ele>554.6</ele>
        <time>2021-10-03T10:17:18Z</time>
      </trkpt>
      <trkpt lat="47.44685" lon="7.21916">
        <ele>554.6</ele>
        <time>2021-10-03T10:17:19Z</time>
      </trkpt>
      <trkpt lat="47.44685" lon="7.21915">
        <ele>554.5</ele>
        <time>2021-10-03T10:17:20Z</time>
      </trkpt>
      <trkpt lat="47.44685" lon="7.21915">
        <ele>554.5</ele>
        <time>2021-10-03T10:17:22Z</time>
      </trkpt>
      <trkpt lat="47.44685" lon="7.21914">
        <ele>554.5</ele>
        <time>2021-10-03T10:17:24Z</time>
      </trkpt>
      <trkpt lat="47.44685" lon="7.21914">
        <ele>554.5</ele>
        <time>2021-10-03T10:17:25Z</time>
      </trkpt>
      <trkpt lat="47.44685" lon="7.21913">
        <ele>554.5</ele>
        <time>2021-10-03T10:17:34Z</time>
      </trkpt>
      <trkpt lat="47.44685" lon="7.21913">
        <ele>554.5</ele>
        <time>2021-10-03T10:17:35Z</time>
      </trkpt>
      <trkpt lat="47.44685" lon="7.21912">
        <ele>554.5</ele>
        <time>2021-10-03T10:18:01Z</time>
      </trkpt>
      <trkpt lat="47.44685" lon="7.21912">
        <ele>554.5</ele>
        <time>2021-10-03T10:18:02Z</time>
      </trkpt>
      <trkpt lat="47.44684" lon="7.21911">
        <ele>554.5</ele>
        <time>2021-10-03T10:18:15Z</time>
      </trkpt>
      <trkpt lat="47.44684" lon="7.21911">
        <ele>554.5</ele>
        <time>2021-10-03T10:18:18Z</time>
      </trkpt>
      <trkpt lat="47.44684" lon="7.2191">
        <ele>554.5</ele>
        <time>2021-10-03T10:18:30Z</time>
      </trkpt>
      <trkpt lat="47.44684" lon="7.2191">
        <ele>554.5</ele>
        <time>2021-10-03T10:18:32Z</time>
      </trkpt>
      <trkpt lat="47.44684" lon="7.21909">
        <ele>554.5</ele>
        <time>2021-10-03T10:18:33Z</time>
      </trkpt>
      <trkpt lat="47.44684" lon="7.21909">
        <ele>554.5</ele>
        <time>2021-10-03T10:18:37Z</time>
      </trkpt>
      <trkpt lat="47.44684" lon="7.21908">
        <ele>554.5</ele>
        <time>2021-10-03T10:18:38Z</time>
      </trkpt>
      <trkpt lat="47.44684" lon="7.21908">
        <ele>554.5</ele>
        <time>2021-10-03T10:18:42Z</time>
      </trkpt>
      <trkpt lat="47.44684" lon="7.21908">
        <ele>554.5</ele>
        <time>2021-10-03T10:18:43Z</time>
      </trkpt>
      <trkpt lat="47.44683" lon="7.21907">
        <ele>554.5</ele>
        <time>2021-10-03T10:18:44Z</time>
      </trkpt>
      <trkpt lat="47.44683" lon="7.21907">
        <ele>554.5</ele>
        <time>2021-10-03T10:18:45Z</time>
      </trkpt>
      <trkpt lat="47.44683" lon="7.21906">
        <ele>554.5</ele>
        <time>2021-10-03T10:18:55Z</time>
      </trkpt>
      <trkpt lat="47.44683" lon="7.21906">
        <ele>554.5</ele>
        <time>2021-10-03T10:18:56Z</time>
      </trkpt>
      <trkpt lat="47.44683" lon="7.21905">
        <ele>554.5</ele>
        <time>2021-10-03T10:19:04Z</time>
      </trkpt>
      <trkpt lat="47.44683" lon="7.21905">
        <ele>554.5</ele>
        <time>2021-10-03T10:19:26Z</time>
      </trkpt>
      <trkpt lat="47.44683" lon="7.21904">
        <ele>554.4</ele>
        <time>2021-10-03T10:19:35Z</time>
      </trkpt>
      <trkpt lat="47.44683" lon="7.21904">
        <ele>554.4</ele>
        <time>2021-10-03T10:19:37Z</time>
      </trkpt>
      <trkpt lat="47.44683" lon="7.21903">
        <ele>554.4</ele>
        <time>2021-10-03T10:19:41Z</time>
      </trkpt>
      <trkpt lat="47.44683" lon="7.21903">
        <ele>554.4</ele>
        <time>2021-10-03T10:19:42Z</time>
      </trkpt>
      <trkpt lat="47.44682" lon="7.21902">
        <ele>554.4</ele>
        <time>2021-10-03T10:19:52Z</time>
      </trkpt>
      <trkpt lat="47.44682" lon="7.21902">
        <ele>554.4</ele>
        <time>2021-10-03T10:19:53Z</time>
      </trkpt>
      <trkpt lat="47.44682" lon="7.21901">
        <ele>554.4</ele>
        <time>2021-10-03T10:20:02Z</time>
      </trkpt>
      <trkpt lat="47.44682" lon="7.21901">
        <ele>554.4</ele>
        <time>2021-10-03T10:20:12Z</time>
      </trkpt>
      <trkpt lat="47.44682" lon="7.219">
        <ele>554.4</ele>
        <time>2021-10-03T10:20:14Z</time>
      </trkpt>
      <trkpt lat="47.44682" lon="7.219">
        <ele>554.4</ele>
        <time>2021-10-03T10:20:18Z</time>
      </trkpt>
      <trkpt lat="47.44682" lon="7.21899">
        <ele>554.4</ele>
        <time>2021-10-03T10:20:20Z</time>
      </trkpt>
      <trkpt lat="47.44682" lon="7.21899">
        <ele>554.4</ele>
        <time>2021-10-03T10:20:26Z</time>
      </trkpt>
      <trkpt lat="47.44682" lon="7.21898">
        <ele>554.4</ele>
        <time>2021-10-03T10:20:30Z</time>
      </trkpt>
      <trkpt lat="47.44681" lon="7.21898">
        <ele>554.4</ele>
        <time>2021-10-03T10:20:34Z</time>
      </trkpt>
      <trkpt lat="47.44681" lon="7.21897">
        <ele>554.4</ele>
        <time>2021-10-03T10:20:36Z</time>
      </trkpt>
      <trkpt lat="47.44681" lon="7.21897">
        <ele>554.4</ele>
        <time>2021-10-03T10:20:42Z</time>
      </trkpt>
      <trkpt lat="47.44681" lon="7.21896">
        <ele>554.4</ele>
        <time>2021-10-03T10:20:44Z</time>
      </trkpt>
      <trkpt lat="47.44681" lon="7.21896">
        <ele>554.3</ele>
        <time>2021-10-03T10:21:14Z</time>
      </trkpt>
      <trkpt lat="47.44681" lon="7.21895">
        <ele>554.3</ele>
        <time>2021-10-03T10:21:24Z</time>
      </trkpt>
      <trkpt lat="47.44681" lon="7.21895">
        <ele>554.3</ele>
        <time>2021-10-03T10:21:25Z</time>
      </trkpt>
      <trkpt lat="47.44681" lon="7.21894">
        <ele>554.3</ele>
        <time>2021-10-03T10:21:50Z</time>
      </trkpt>
      <trkpt lat="47.44681" lon="7.21894">
        <ele>554.3</ele>
        <time>2021-10-03T10:22:09Z</time>
      </trkpt>
      <trkpt lat="47.4468" lon="7.21893">
        <ele>554.3</ele>
        <time>2021-10-03T10:22:45Z</time>
      </trkpt>
      <trkpt lat="47.4468" lon="7.21893">
        <ele>554.3</ele>
        <time>2021-10-03T10:22:48Z</time>
      </trkpt>
      <trkpt lat="47.4468" lon="7.21892">
        <ele>554.3</ele>
        <time>2021-10-03T10:22:51Z</time>
      </trkpt>
      <trkpt lat="47.4468" lon="7.21892">
        <ele>554.3</ele>
        <time>2021-10-03T10:22:52Z</time>
      </trkpt>
      <trkpt lat="47.4468" lon="7.21891">
        <ele>554.3</ele>
        <time>2021-10-03T10:22:54Z</time>
      </trkpt>
      <trkpt lat="47.4468" lon="7.21891">
        <ele>554.3</ele>
        <time>2021-10-03T10:22:58Z</time>
      </trkpt>
      <trkpt lat="47.4468" lon="7.2189">
        <ele>554.3</ele>
        <time>2021-10-03T10:23:11Z</time>
      </trkpt>
      <trkpt lat="47.4468" lon="7.2189">
        <ele>554.3</ele>
        <time>2021-10-03T10:23:44Z</time>
      </trkpt>
      <trkpt lat="47.4468" lon="7.21889">
        <ele>554.3</ele>
        <time>2021-10-03T10:23:46Z</time>
      </trkpt>
      <trkpt lat="47.44679" lon="7.21889">
        <ele>554.3</ele>
        <time>2021-10-03T10:23:56Z</time>
      </trkpt>
      <trkpt lat="47.44679" lon="7.21888">
        <ele>554.3</ele>
        <time>2021-10-03T10:23:59Z</time>
      </trkpt>
      <trkpt lat="47.44679" lon="7.21888">
        <ele>554.3</ele>
        <time>2021-10-03T10:24:02Z</time>
      </trkpt>
      <trkpt lat="47.44679" lon="7.21887">
        <ele>554.2</ele>
        <time>2021-10-03T10:24:03Z</time>
      </trkpt>
      <trkpt lat="47.44679" lon="7.21887">
        <ele>554.2</ele>
        <time>2021-10-03T10:24:12Z</time>
      </trkpt>
      <trkpt lat="47.44679" lon="7.21886">
        <ele>554.2</ele>
        <time>2021-10-03T10:24:13Z</time>
      </trkpt>
      <trkpt lat="47.44679" lon="7.21886">
        <ele>554.1</ele>
        <time>2021-10-03T10:24:26Z</time>
      </trkpt>
      <trkpt lat="47.44679" lon="7.21885">
        <ele>554.1</ele>
        <time>2021-10-03T10:24:33Z</time>
      </trkpt>
      <trkpt lat="47.44679" lon="7.21885">
        <ele>554.1</ele>
        <time>2021-10-03T10:24:34Z</time>
      </trkpt>
      <trkpt lat="47.44678" lon="7.21884">
        <ele>554.1</ele>
        <time>2021-10-03T10:24:41Z</time>
      </trkpt>
      <trkpt lat="47.44678" lon="7.21884">
        <ele>554</ele>
        <time>2021-10-03T10:25:23Z</time>
      </trkpt>
      <trkpt lat="47.44678" lon="7.21883">
        <ele>554</ele>
        <time>2021-10-03T10:25:24Z</time>
      </trkpt>
      <trkpt lat="47.44678" lon="7.21883">
        <ele>554</ele>
        <time>2021-10-03T10:25:27Z</time>
      </trkpt>
      <trkpt lat="47.44678" lon="7.21882">
        <ele>554</ele>
        <time>2021-10-03T10:25:30Z</time>
      </trkpt>
      <trkpt lat="47.44678" lon="7.21882">
        <ele>553.9</ele>
        <time>2021-10-03T10:25:31Z</time>
      </trkpt>
      <trkpt lat="47.44678" lon="7.21881">
        <ele>553.9</ele>
        <time>2021-10-03T10:25:37Z</time>
      </trkpt>
      <trkpt lat="47.44678" lon="7.21881">
        <ele>553.9</ele>
        <time>2021-10-03T10:25:38Z</time>
      </trkpt>
      <trkpt lat="47.44678" lon="7.2188">
        <ele>553.8</ele>
        <time>2021-10-03T10:25:39Z</time>
      </trkpt>
      <trkpt lat="47.44678" lon="7.2188">
        <ele>553.8</ele>
        <time>2021-10-03T10:25:48Z</time>
      </trkpt>
      <trkpt lat="47.44677" lon="7.21879">
        <ele>553.8</ele>
        <time>2021-10-03T10:25:59Z</time>
      </trkpt>
      <trkpt lat="47.44677" lon="7.21879">
        <ele>553.8</ele>
        <time>2021-10-03T10:26:00Z</time>
      </trkpt>
      <trkpt lat="47.44677" lon="7.21879">
        <ele>553.7</ele>
        <time>2021-10-03T10:26:39Z</time>
      </trkpt>
      <trkpt lat="47.44677" lon="7.21878">
        <ele>553.7</ele>
        <time>2021-10-03T10:26:49Z</time>
      </trkpt>
      <trkpt lat="47.44677" lon="7.21878">
        <ele>553.7</ele>
        <time>2021-10-03T10:26:59Z</time>
      </trkpt>
      <trkpt lat="47.44677" lon="7.21877">
        <ele>553.7</ele>
        <time>2021-10-03T10:27:05Z</time>
      </trkpt>
      <trkpt lat="47.44677" lon="7.21877">
        <ele>553.6</ele>
        <time>2021-10-03T10:27:06Z</time>
      </trkpt>
      <trkpt lat="47.44677" lon="7.21876">
        <ele>553.6</ele>
        <time>2021-10-03T10:27:27Z</time>
      </trkpt>
      <trkpt lat="47.44677" lon="7.21876">
        <ele>553.6</ele>
        <time>2021-10-03T10:27:27Z</time>
      </trkpt>
    </trkseg>
  </trk>
</gpx>